Darstellungsparameter: Aktuell verwendete Einstellungen:
Skalierung der Graphiken ... ?
xyx+y,   Skalierungsfaktor:      Skalierung: Modus: x, Faktor: 1
Darstellungszeitraum ... ?
Vom - - bis: - -   Zeitraum: 20.04.2020 - 24.04.2020
Min/Max/Avg-Anzeige ... ?
Zeige MMA aktuell
Zeige MMA Monat
Zeige MMA alles
Zeige --A aktuell
Zeige --A Monat
Zeige --A alles
Keine MMA-Anzeige
MMA:
Keine MMA-Graphiken
MMA-Basis: 20.04.2020 - 24.04.2020
Quicknavigation für Darstellung... ?
Tage:      1T, 2T, 3T, 5T -1T -2T -3T -5T +1T +2T +3T +5T
Wochen: 1W, 2W, 3W -1W -2W -3W +1W +2W +3W
Monate: 1M, 3M, 6M -1M -3M -6M +1M +3M +6M
Jahre:    1J, 3J, 5J, 10J -1J -3J -5J -10J +1J +3J +5J +10J
Nutze für die Darstellung ... ?
Originaldaten oder Mittelwerte auf ...
Stundenbasis Tagesbasis Wochenbasis
Monatsbasis Jahresbasis      Datenbasis: Original-Daten
Darstellen als:
Statistik (Auto) Statistik J:M      Darstellung:
Zur Graphik,    zurück zur Übersicht aller Sensoren.
 
Tabellarische Datenbersicht: ?
 
Sensor: Nr:Datum:Temp:Feuchte:Taupunkt:
Aussen-T/F 1 20-04-2020 00:00:00 10.7 C 58 % 2.79 C
2 20-04-2020 00:05:00 10.6 C 60 % 3.17 C
3 20-04-2020 00:10:00 10.4 C 61 % 3.21 C
4 20-04-2020 00:15:00 10.2 C 60 % 2.79 C
5 20-04-2020 00:20:00 10.1 C 57 % 1.98 C
6 20-04-2020 00:25:00 10.2 C 56 % 1.83 C
7 20-04-2020 00:30:00 10.3 C 59 % 2.65 C
8 20-04-2020 00:35:00 10.3 C 58 % 2.41 C
9 20-04-2020 00:40:00 10.3 C 59 % 2.65 C
10 20-04-2020 00:45:00 10.2 C 58 % 2.32 C
11 20-04-2020 00:50:00 10.2 C 57 % 2.07 C
12 20-04-2020 00:55:00 10.1 C 59 % 2.46 C
13 20-04-2020 01:00:00 9.9 C 57 % 1.79 C
14 20-04-2020 01:05:00 10 C 57 % 1.89 C
15 20-04-2020 01:10:00 10 C 57 % 1.89 C
16 20-04-2020 01:15:00 9.9 C 57 % 1.79 C
17 20-04-2020 01:20:00 9.9 C 58 % 2.04 C
18 20-04-2020 01:25:00 9.9 C 55 % 1.3 C
19 20-04-2020 01:30:00 10.1 C 58 % 2.22 C
20 20-04-2020 01:35:00 9.9 C 57 % 1.79 C
21 20-04-2020 01:40:00 9.8 C 58 % 1.94 C
22 20-04-2020 01:45:00 9.7 C 59 % 2.09 C
23 20-04-2020 01:50:00 9.5 C 60 % 2.13 C
24 20-04-2020 01:55:00 9.2 C 62 % 2.31 C
25 20-04-2020 02:00:00 9 C 62 % 2.12 C
Sensor: Nr:Datum:Temp:Feuchte:Taupunkt:
Aussen-T/F 26 20-04-2020 02:05:00 8.8 C 63 % 2.16 C
27 20-04-2020 02:10:00 8.5 C 62 % 1.65 C
28 20-04-2020 02:15:00 8.4 C 63 % 1.78 C
29 20-04-2020 02:20:00 8.3 C 65 % 2.12 C
30 20-04-2020 02:25:00 8.2 C 64 % 1.81 C
31 20-04-2020 02:30:00 7.9 C 66 % 1.95 C
32 20-04-2020 02:35:00 7.8 C 65 % 1.64 C
33 20-04-2020 02:40:00 7.7 C 67 % 1.97 C
34 20-04-2020 02:45:00 7.6 C 66 % 1.67 C
35 20-04-2020 02:50:00 7.6 C 68 % 2.08 C
36 20-04-2020 02:55:00 7.5 C 68 % 1.99 C
37 20-04-2020 03:00:00 7.4 C 66 % 1.48 C
38 20-04-2020 03:05:00 7.4 C 67 % 1.69 C
39 20-04-2020 03:10:00 7.4 C 68 % 1.89 C
40 20-04-2020 03:15:00 7.3 C 68 % 1.8 C
41 20-04-2020 03:20:00 7.3 C 68 % 1.8 C
42 20-04-2020 03:25:00 7.2 C 69 % 1.9 C
43 20-04-2020 03:30:00 7.1 C 68 % 1.61 C
44 20-04-2020 03:35:00 7.1 C 68 % 1.61 C
45 20-04-2020 03:40:00 7.2 C 68 % 1.7 C
46 20-04-2020 03:45:00 7.1 C 69 % 1.81 C
47 20-04-2020 03:50:00 7.1 C 69 % 1.81 C
48 20-04-2020 03:55:00 7 C 69 % 1.71 C
49 20-04-2020 04:00:00 6.9 C 69 % 1.62 C
50 20-04-2020 04:05:00 6.8 C 70 % 1.72 C
Sensor: Nr:Datum:Temp:Feuchte:Taupunkt:
Aussen-T/F 51 20-04-2020 04:10:00 6.7 C 70 % 1.63 C
52 20-04-2020 04:15:00 6.7 C 70 % 1.63 C
53 20-04-2020 04:20:00 6.6 C 70 % 1.53 C
54 20-04-2020 04:25:00 6.6 C 70 % 1.53 C
55 20-04-2020 04:30:00 6.6 C 70 % 1.53 C
56 20-04-2020 04:35:00 6.6 C 70 % 1.53 C
57 20-04-2020 04:40:00 6.5 C 70 % 1.43 C
58 20-04-2020 04:45:00 6.5 C 70 % 1.43 C
59 20-04-2020 04:50:00 6.4 C 71 % 1.54 C
60 20-04-2020 04:55:00 6.4 C 70 % 1.34 C
61 20-04-2020 05:00:00 6.4 C 69 % 1.14 C
62 20-04-2020 05:05:00 6.6 C 70 % 1.53 C
63 20-04-2020 05:10:00 6.6 C 70 % 1.53 C
64 20-04-2020 05:15:00 6.7 C 70 % 1.63 C
65 20-04-2020 05:20:00 6.7 C 70 % 1.63 C
66 20-04-2020 05:25:00 6.7 C 70 % 1.63 C
67 20-04-2020 05:30:00 6.6 C 70 % 1.53 C
68 20-04-2020 05:35:00 6.6 C 71 % 1.73 C
69 20-04-2020 05:40:00 6.5 C 70 % 1.43 C
70 20-04-2020 05:45:00 6.5 C 70 % 1.43 C
71 20-04-2020 05:50:00 6.5 C 71 % 1.63 C
72 20-04-2020 05:55:00 6.5 C 71 % 1.63 C
73 20-04-2020 06:00:00 6.4 C 71 % 1.54 C
74 20-04-2020 06:05:00 6.4 C 71 % 1.54 C
75 20-04-2020 06:10:00 6.4 C 71 % 1.54 C
Sensor: Nr:Datum:Temp:Feuchte:Taupunkt:
Aussen-T/F 76 20-04-2020 06:15:00 6.3 C 71 % 1.44 C
77 20-04-2020 06:20:00 6.3 C 70 % 1.24 C
78 20-04-2020 06:25:00 6.3 C 71 % 1.44 C
79 20-04-2020 06:30:00 6.4 C 70 % 1.34 C
80 20-04-2020 06:35:00 6.5 C 71 % 1.63 C
81 20-04-2020 06:40:00 6.4 C 71 % 1.54 C
82 20-04-2020 06:45:00 6.4 C 72 % 1.73 C
83 20-04-2020 06:50:00 6.3 C 72 % 1.63 C
84 20-04-2020 06:55:00 6.3 C 72 % 1.63 C
85 20-04-2020 07:00:00 6.4 C 70 % 1.34 C
86 20-04-2020 07:05:00 6.5 C 70 % 1.43 C
87 20-04-2020 07:10:00 6.7 C 70 % 1.63 C
88 20-04-2020 07:15:00 6.7 C 70 % 1.63 C
89 20-04-2020 07:20:00 6.7 C 70 % 1.63 C
90 20-04-2020 07:25:00 6.7 C 72 % 2.02 C
91 20-04-2020 07:30:00 6.8 C 68 % 1.32 C
92 20-04-2020 07:35:00 6.9 C 70 % 1.82 C
93 20-04-2020 07:40:00 7.1 C 67 % 1.4 C
94 20-04-2020 07:45:00 7.3 C 67 % 1.59 C
95 20-04-2020 07:50:00 7.4 C 65 % 1.26 C
96 20-04-2020 07:55:00 7.7 C 65 % 1.55 C
97 20-04-2020 08:00:00 7.8 C 65 % 1.64 C
98 20-04-2020 08:05:00 7.9 C 65 % 1.74 C
99 20-04-2020 08:10:00 8.1 C 63 % 1.49 C
100 20-04-2020 08:15:00 8.2 C 62 % 1.37 C
Sensor: Nr:Datum:Temp:Feuchte:Taupunkt:
Aussen-T/F 101 20-04-2020 08:20:00 8.4 C 64 % 2 C
102 20-04-2020 08:25:00 8.4 C 64 % 2 C
103 20-04-2020 08:30:00 8.4 C 63 % 1.78 C
104 20-04-2020 08:35:00 8.4 C 64 % 2 C
105 20-04-2020 08:40:00 8.4 C 63 % 1.78 C
106 20-04-2020 08:45:00 8.5 C 62 % 1.65 C
107 20-04-2020 08:50:00 8.7 C 63 % 2.06 C
108 20-04-2020 08:55:00 8.8 C 62 % 1.93 C
109 20-04-2020 09:00:00 8.8 C 62 % 1.93 C
110 20-04-2020 09:05:00 8.9 C 62 % 2.03 C
111 20-04-2020 09:10:00 8.9 C 64 % 2.47 C
112 20-04-2020 09:15:00 9 C 61 % 1.89 C
113 20-04-2020 09:20:00 9 C 64 % 2.57 C
114 20-04-2020 09:25:00 9.1 C 65 % 2.88 C
115 20-04-2020 09:30:00 9 C 62 % 2.12 C
116 20-04-2020 09:35:00 9.3 C 65 % 3.07 C
117 20-04-2020 09:40:00 9.4 C 61 % 2.27 C
118 20-04-2020 09:45:00 9.7 C 60 % 2.32 C
119 20-04-2020 09:50:00 9.7 C 63 % 3.01 C
120 20-04-2020 09:55:00 9.7 C 60 % 2.32 C
121 20-04-2020 10:00:00 9.9 C 61 % 2.74 C
122 20-04-2020 10:05:00 10.1 C 61 % 2.93 C
123 20-04-2020 10:10:00 10.4 C 58 % 2.5 C
124 20-04-2020 10:15:00 10.7 C 57 % 2.54 C
125 20-04-2020 10:20:00 11.2 C 54 % 2.25 C
Sensor: Nr:Datum:Temp:Feuchte:Taupunkt:
Aussen-T/F 126 20-04-2020 10:25:00 11.5 C 54 % 2.53 C
127 20-04-2020 10:30:00 11.8 C 52 % 2.28 C
128 20-04-2020 10:35:00 12.1 C 55 % 3.34 C
129 20-04-2020 10:40:00 12.2 C 52 % 2.65 C
130 20-04-2020 10:45:00 12.5 C 51 % 2.65 C
131 20-04-2020 10:50:00 12.7 C 49 % 2.27 C
132 20-04-2020 10:55:00 13 C 49 % 2.55 C
133 20-04-2020 11:00:00 13.3 C 46 % 1.94 C
134 20-04-2020 11:05:00 13.4 C 46 % 2.03 C
135 20-04-2020 11:10:00 13.7 C 46 % 2.3 C
136 20-04-2020 11:15:00 13.8 C 45 % 2.09 C
137 20-04-2020 11:20:00 13.9 C 47 % 2.79 C
138 20-04-2020 11:25:00 14.2 C 49 % 3.65 C
139 20-04-2020 11:30:00 14.3 C 43 % 1.91 C
140 20-04-2020 11:35:00 14.4 C 44 % 2.32 C
141 20-04-2020 11:40:00 14.6 C 43 % 2.18 C
142 20-04-2020 11:45:00 14.7 C 43 % 2.27 C
143 20-04-2020 11:50:00 14.8 C 42 % 2.03 C
144 20-04-2020 11:55:00 14.9 C 41 % 1.78 C
145 20-04-2020 12:00:00 14.9 C 41 % 1.78 C
146 20-04-2020 12:05:00 15 C 43 % 2.54 C
147 20-04-2020 12:10:00 15 C 40 % 1.53 C
148 20-04-2020 12:15:00 14.9 C 40 % 1.44 C
149 20-04-2020 12:20:00 14.9 C 41 % 1.78 C
150 20-04-2020 12:25:00 15.1 C 40 % 1.62 C
Sensor: Nr:Datum:Temp:Feuchte:Taupunkt:
Aussen-T/F 151 20-04-2020 12:30:00 15.1 C 39 % 1.26 C
152 20-04-2020 12:35:00 15.1 C 39 % 1.26 C
153 20-04-2020 12:40:00 15.1 C 39 % 1.26 C
154 20-04-2020 12:45:00 15.1 C 40 % 1.62 C
155 20-04-2020 12:50:00 15.2 C 40 % 1.71 C
156 20-04-2020 12:55:00 15.3 C 39 % 1.44 C
157 20-04-2020 13:00:00 15.4 C 39 % 1.53 C
158 20-04-2020 13:05:00 15.5 C 38 % 1.26 C
159 20-04-2020 13:10:00 15.7 C 41 % 2.5 C
160 20-04-2020 13:15:00 15.9 C 38 % 1.62 C
161 20-04-2020 13:20:00 15.8 C 38 % 1.53 C
162 20-04-2020 13:25:00 15.9 C 38 % 1.62 C
163 20-04-2020 13:30:00 16.1 C 37 % 1.42 C
164 20-04-2020 13:35:00 16.2 C 38 % 1.88 C
165 20-04-2020 13:40:00 16.3 C 37 % 1.6 C
166 20-04-2020 13:45:00 16.4 C 37 % 1.69 C
167 20-04-2020 13:50:00 16.4 C 38 % 2.06 C
168 20-04-2020 13:55:00 16.7 C 36 % 1.57 C
169 20-04-2020 14:00:00 16.8 C 37 % 2.04 C
170 20-04-2020 14:05:00 16.9 C 36 % 1.75 C
171 20-04-2020 14:10:00 16.9 C 35 % 1.36 C
172 20-04-2020 14:15:00 17 C 35 % 1.45 C
173 20-04-2020 14:20:00 17.1 C 37 % 2.31 C
174 20-04-2020 14:25:00 17.3 C 33 % 0.89 C
175 20-04-2020 14:30:00 17.3 C 34 % 1.31 C
Sensor: Nr:Datum:Temp:Feuchte:Taupunkt:
Aussen-T/F 176 20-04-2020 14:35:00 17.3 C 34 % 1.31 C
177 20-04-2020 14:40:00 17.5 C 34 % 1.48 C
178 20-04-2020 14:45:00 17.6 C 34 % 1.57 C
179 20-04-2020 14:50:00 17.7 C 34 % 1.66 C
180 20-04-2020 14:55:00 17.8 C 34 % 1.75 C
181 20-04-2020 15:00:00 17.9 C 34 % 1.83 C
182 20-04-2020 15:05:00 18.1 C 32 % 1.17 C
183 20-04-2020 15:10:00 18 C 32 % 1.08 C
184 20-04-2020 15:15:00 18.1 C 32 % 1.17 C
185 20-04-2020 15:20:00 18.2 C 32 % 1.25 C
186 20-04-2020 15:25:00 18.3 C 33 % 1.77 C
187 20-04-2020 15:30:00 18.5 C 33 % 1.94 C
188 20-04-2020 15:35:00 18.6 C 32 % 1.6 C
189 20-04-2020 15:40:00 18.7 C 31 % 1.25 C
190 20-04-2020 15:45:00 18.8 C 31 % 1.33 C
191 20-04-2020 15:50:00 18.8 C 31 % 1.33 C
192 20-04-2020 15:55:00 18.9 C 31 % 1.42 C
193 20-04-2020 16:00:00 19 C 30 % 1.05 C
194 20-04-2020 16:05:00 19.1 C 31 % 1.59 C
195 20-04-2020 16:10:00 19.2 C 30 % 1.23 C
196 20-04-2020 16:15:00 19.3 C 30 % 1.31 C
197 20-04-2020 16:20:00 19.5 C 30 % 1.48 C
198 20-04-2020 16:25:00 19.7 C 31 % 2.12 C
199 20-04-2020 16:30:00 19.9 C 30 % 1.83 C
200 20-04-2020 16:35:00 19.6 C 30 % 1.57 C
Sensor: Nr:Datum:Temp:Feuchte:Taupunkt:
Aussen-T/F 201 20-04-2020 16:40:00 19.3 C 31 % 1.77 C
202 20-04-2020 16:45:00 19.7 C 32 % 2.56 C
203 20-04-2020 16:50:00 19.8 C 30 % 1.74 C
204 20-04-2020 16:55:00 19.9 C 32 % 2.73 C
205 20-04-2020 17:00:00 20.3 C 31 % 2.64 C
206 20-04-2020 17:05:00 20.6 C 31 % 2.9 C
207 20-04-2020 17:10:00 20.3 C 30 % 2.18 C
208 20-04-2020 17:15:00 20.1 C 31 % 2.46 C
209 20-04-2020 17:20:00 20.1 C 30 % 2 C
210 20-04-2020 17:25:00 19.9 C 31 % 2.29 C
211 20-04-2020 17:30:00 19.5 C 32 % 2.39 C
212 20-04-2020 17:35:00 19.2 C 34 % 2.98 C
213 20-04-2020 17:40:00 19.3 C 33 % 2.64 C
214 20-04-2020 17:45:00 19.6 C 33 % 2.91 C
215 20-04-2020 17:50:00 19.7 C 33 % 2.99 C
216 20-04-2020 17:55:00 19.4 C 36 % 3.96 C
217 20-04-2020 18:00:00 19.2 C 42 % 5.99 C
218 20-04-2020 18:05:00 18.5 C 36 % 3.17 C
219 20-04-2020 18:10:00 18.4 C 39 % 4.21 C
220 20-04-2020 18:15:00 18.6 C 37 % 3.64 C
221 20-04-2020 18:20:00 18.7 C 36 % 3.34 C
222 20-04-2020 18:25:00 18.6 C 36 % 3.25 C
223 20-04-2020 18:30:00 18.6 C 35 % 2.86 C
224 20-04-2020 18:35:00 18.6 C 35 % 2.86 C
225 20-04-2020 18:40:00 18.7 C 35 % 2.94 C
Sensor: Nr:Datum:Temp:Feuchte:Taupunkt:
Aussen-T/F 226 20-04-2020 18:45:00 18.6 C 37 % 3.64 C
227 20-04-2020 18:50:00 18.7 C 35 % 2.94 C
228 20-04-2020 18:55:00 18.8 C 35 % 3.03 C
229 20-04-2020 19:00:00 18.6 C 35 % 2.86 C
230 20-04-2020 19:05:00 18.4 C 35 % 2.68 C
231 20-04-2020 19:10:00 18.2 C 38 % 3.66 C
232 20-04-2020 19:15:00 18.2 C 35 % 2.5 C
233 20-04-2020 19:20:00 17.9 C 36 % 2.63 C
234 20-04-2020 19:25:00 17.6 C 37 % 2.75 C
235 20-04-2020 19:30:00 17.4 C 37 % 2.58 C
236 20-04-2020 19:35:00 17.4 C 37 % 2.58 C
237 20-04-2020 19:40:00 17.2 C 36 % 2.02 C
238 20-04-2020 19:45:00 17 C 37 % 2.22 C
239 20-04-2020 19:50:00 16.8 C 36 % 1.66 C
240 20-04-2020 19:55:00 16.7 C 36 % 1.57 C
241 20-04-2020 20:00:00 16.5 C 38 % 2.15 C
242 20-04-2020 20:05:00 16.3 C 38 % 1.97 C
243 20-04-2020 20:10:00 16.1 C 38 % 1.79 C
244 20-04-2020 20:15:00 15.9 C 39 % 1.98 C
245 20-04-2020 20:20:00 15.7 C 40 % 2.15 C
246 20-04-2020 20:25:00 15.4 C 42 % 2.57 C
247 20-04-2020 20:30:00 15.1 C 42 % 2.3 C
248 20-04-2020 20:35:00 14.8 C 41 % 1.69 C
249 20-04-2020 20:40:00 14.7 C 40 % 1.26 C
250 20-04-2020 20:45:00 14.7 C 41 % 1.6 C
Sensor: Nr:Datum:Temp:Feuchte:Taupunkt:
Aussen-T/F 251 20-04-2020 20:50:00 14.6 C 42 % 1.85 C
252 20-04-2020 20:55:00 14.4 C 42 % 1.67 C
253 20-04-2020 21:00:00 14.2 C 42 % 1.49 C
254 20-04-2020 21:05:00 14.1 C 41 % 1.06 C
255 20-04-2020 21:10:00 13.9 C 43 % 1.54 C
256 20-04-2020 21:15:00 13.7 C 44 % 1.68 C
257 20-04-2020 21:20:00 13.4 C 45 % 1.72 C
258 20-04-2020 21:25:00 13.2 C 44 % 1.23 C
259 20-04-2020 21:30:00 13.1 C 47 % 2.06 C
260 20-04-2020 21:35:00 12.7 C 45 % 1.09 C
261 20-04-2020 21:40:00 12.6 C 46 % 1.3 C
262 20-04-2020 21:45:00 12.4 C 47 % 1.42 C
263 20-04-2020 21:50:00 12.6 C 45 % 1 C
264 20-04-2020 21:55:00 12.7 C 44 % 0.78 C
265 20-04-2020 22:00:00 12.7 C 47 % 1.69 C
266 20-04-2020 22:05:00 12.6 C 45 % 1 C
267 20-04-2020 22:10:00 12.6 C 45 % 1 C
268 20-04-2020 22:15:00 12.5 C 48 % 1.8 C
269 20-04-2020 22:20:00 12.3 C 47 % 1.33 C
270 20-04-2020 22:25:00 12.4 C 45 % 0.81 C
271 20-04-2020 22:30:00 12.4 C 45 % 0.81 C
272 20-04-2020 22:35:00 12.4 C 46 % 1.12 C
273 20-04-2020 22:40:00 12.4 C 45 % 0.81 C
274 20-04-2020 22:45:00 12.4 C 46 % 1.12 C
275 20-04-2020 22:50:00 12.2 C 47 % 1.24 C
Sensor: Nr:Datum:Temp:Feuchte:Taupunkt:
Aussen-T/F 276 20-04-2020 22:55:00 12 C 47 % 1.05 C
277 20-04-2020 23:00:00 11.9 C 46 % 0.66 C
278 20-04-2020 23:05:00 11.8 C 47 % 0.87 C
279 20-04-2020 23:10:00 11.8 C 46 % 0.57 C
280 20-04-2020 23:15:00 11.7 C 45 % 0.18 C
281 20-04-2020 23:20:00 11.8 C 48 % 1.16 C
282 20-04-2020 23:25:00 11.6 C 47 % 0.69 C
283 20-04-2020 23:30:00 11.6 C 46 % 0.39 C
284 20-04-2020 23:35:00 11.7 C 46 % 0.48 C
285 20-04-2020 23:40:00 11.7 C 45 % 0.18 C
286 20-04-2020 23:45:00 11.6 C 45 % 0.09 C
287 20-04-2020 23:50:00 11.6 C 47 % 0.69 C
288 20-04-2020 23:55:00 11.5 C 46 % 0.3 C
289 21-04-2020 00:00:00 11.4 C 47 % 0.5 C
290 21-04-2020 00:05:00 11.3 C 48 % 0.7 C
291 21-04-2020 00:10:00 11.1 C 48 % 0.52 C
292 21-04-2020 00:15:00 11.2 C 46 % 0.02 C
293 21-04-2020 00:20:00 11.2 C 47 % 0.32 C
294 21-04-2020 00:25:00 11.1 C 47 % 0.23 C
295 21-04-2020 00:30:00 10.9 C 50 % 0.9 C
296 21-04-2020 00:35:00 10.7 C 49 % 0.44 C
297 21-04-2020 00:40:00 10.6 C 48 % 0.06 C
298 21-04-2020 00:45:00 10.8 C 49 % 0.53 C
299 21-04-2020 00:50:00 10.8 C 50 % 0.81 C
300 21-04-2020 00:55:00 10.6 C 51 % 0.9 C
Sensor: Nr:Datum:Temp:Feuchte:Taupunkt:
Aussen-T/F 301 21-04-2020 01:00:00 10.3 C 51 % 0.62 C
302 21-04-2020 01:05:00 10 C 53 % 0.87 C
303 21-04-2020 01:10:00 9.8 C 54 % 0.95 C
304 21-04-2020 01:15:00 9.5 C 55 % 0.92 C
305 21-04-2020 01:20:00 9.3 C 55 % 0.74 C
306 21-04-2020 01:25:00 9.2 C 56 % 0.89 C
307 21-04-2020 01:30:00 9.3 C 56 % 0.99 C
308 21-04-2020 01:35:00 9.2 C 56 % 0.89 C
309 21-04-2020 01:40:00 9.1 C 57 % 1.04 C
310 21-04-2020 01:45:00 8.9 C 56 % 0.61 C
311 21-04-2020 01:50:00 8.9 C 57 % 0.86 C
312 21-04-2020 01:55:00 8.8 C 58 % 1 C
313 21-04-2020 02:00:00 8.8 C 55 % 0.27 C
314 21-04-2020 02:05:00 9.2 C 57 % 1.14 C
315 21-04-2020 02:10:00 9.2 C 57 % 1.14 C
316 21-04-2020 02:15:00 9.3 C 54 % 0.48 C
317 21-04-2020 02:20:00 9.4 C 55 % 0.83 C
318 21-04-2020 02:25:00 9.5 C 54 % 0.67 C
319 21-04-2020 02:30:00 9.5 C 54 % 0.67 C
320 21-04-2020 02:35:00 9.5 C 56 % 1.17 C
321 21-04-2020 02:40:00 9.5 C 55 % 0.92 C
322 21-04-2020 02:45:00 9.7 C 54 % 0.86 C
323 21-04-2020 02:50:00 9.7 C 53 % 0.6 C
324 21-04-2020 02:55:00 9.7 C 54 % 0.86 C
325 21-04-2020 03:00:00 9.7 C 52 % 0.33 C
Sensor: Nr:Datum:Temp:Feuchte:Taupunkt:
Aussen-T/F 326 21-04-2020 03:05:00 9.8 C 53 % 0.69 C
327 21-04-2020 03:10:00 9.8 C 54 % 0.95 C
328 21-04-2020 03:15:00 9.7 C 55 % 1.11 C
329 21-04-2020 03:20:00 9.6 C 53 % 0.5 C
330 21-04-2020 03:25:00 9.7 C 53 % 0.6 C
331 21-04-2020 03:30:00 9.7 C 55 % 1.11 C
332 21-04-2020 03:35:00 9.6 C 56 % 1.27 C
333 21-04-2020 03:40:00 9.4 C 57 % 1.33 C
334 21-04-2020 03:45:00 9.2 C 56 % 0.89 C
335 21-04-2020 03:50:00 9.1 C 55 % 0.55 C
336 21-04-2020 03:55:00 9.2 C 58 % 1.38 C
337 21-04-2020 04:00:00 9.1 C 58 % 1.29 C
338 21-04-2020 04:05:00 8.9 C 58 % 1.1 C
339 21-04-2020 04:10:00 8.8 C 59 % 1.24 C
340 21-04-2020 04:15:00 8.5 C 61 % 1.42 C
341 21-04-2020 04:20:00 8.3 C 61 % 1.23 C
342 21-04-2020 04:25:00 8.3 C 60 % 1 C
343 21-04-2020 04:30:00 8.3 C 60 % 1 C
344 21-04-2020 04:35:00 8.3 C 62 % 1.46 C
345 21-04-2020 04:40:00 8.2 C 61 % 1.14 C
346 21-04-2020 04:45:00 8.2 C 62 % 1.37 C
347 21-04-2020 04:50:00 8.1 C 62 % 1.27 C
348 21-04-2020 04:55:00 8.1 C 61 % 1.05 C
349 21-04-2020 05:00:00 8.1 C 63 % 1.49 C
350 21-04-2020 05:05:00 8.1 C 61 % 1.05 C
Sensor: Nr:Datum:Temp:Feuchte:Taupunkt:
Aussen-T/F 351 21-04-2020 05:10:00 8.2 C 61 % 1.14 C
352 21-04-2020 05:15:00 8.2 C 62 % 1.37 C
353 21-04-2020 05:20:00 8.1 C 62 % 1.27 C
354 21-04-2020 05:25:00 8.1 C 63 % 1.49 C
355 21-04-2020 05:30:00 7.9 C 63 % 1.3 C
356 21-04-2020 05:35:00 7.8 C 64 % 1.43 C
357 21-04-2020 05:40:00 7.6 C 66 % 1.67 C
358 21-04-2020 05:45:00 7.3 C 65 % 1.17 C
359 21-04-2020 05:50:00 7.3 C 66 % 1.38 C
360 21-04-2020 05:55:00 7.2 C 67 % 1.49 C
361 21-04-2020 06:00:00 7.1 C 67 % 1.4 C
362 21-04-2020 06:05:00 7.2 C 67 % 1.49 C
363 21-04-2020 06:10:00 7.2 C 67 % 1.49 C
364 21-04-2020 06:15:00 7.2 C 67 % 1.49 C
365 21-04-2020 06:20:00 7.2 C 66 % 1.29 C
366 21-04-2020 06:25:00 7.2 C 67 % 1.49 C
367 21-04-2020 06:30:00 7.1 C 68 % 1.61 C
368 21-04-2020 06:35:00 6.9 C 68 % 1.41 C
369 21-04-2020 06:40:00 6.8 C 68 % 1.32 C
370 21-04-2020 06:45:00 6.8 C 69 % 1.52 C
371 21-04-2020 06:50:00 6.8 C 69 % 1.52 C
372 21-04-2020 06:55:00 6.7 C 70 % 1.63 C
373 21-04-2020 07:00:00 6.7 C 70 % 1.63 C
374 21-04-2020 07:05:00 6.7 C 70 % 1.63 C
375 21-04-2020 07:10:00 6.7 C 70 % 1.63 C
Sensor: Nr:Datum:Temp:Feuchte:Taupunkt:
Aussen-T/F 376 21-04-2020 07:15:00 6.7 C 70 % 1.63 C
377 21-04-2020 07:20:00 6.8 C 70 % 1.72 C
378 21-04-2020 07:25:00 6.8 C 70 % 1.72 C
379 21-04-2020 07:30:00 6.9 C 69 % 1.62 C
380 21-04-2020 07:35:00 6.9 C 69 % 1.62 C
381 21-04-2020 07:40:00 7.2 C 67 % 1.49 C
382 21-04-2020 07:45:00 7.4 C 67 % 1.69 C
383 21-04-2020 07:50:00 7.4 C 68 % 1.89 C
384 21-04-2020 07:55:00 7.4 C 69 % 2.1 C
385 21-04-2020 08:00:00 7.4 C 67 % 1.69 C
386 21-04-2020 08:05:00 7.7 C 67 % 1.97 C
387 21-04-2020 08:10:00 7.8 C 67 % 2.07 C
388 21-04-2020 08:15:00 7.9 C 67 % 2.16 C
389 21-04-2020 08:20:00 8.1 C 65 % 1.93 C
390 21-04-2020 08:25:00 8.2 C 67 % 2.45 C
391 21-04-2020 08:30:00 8.1 C 67 % 2.35 C
392 21-04-2020 08:35:00 8.1 C 67 % 2.35 C
393 21-04-2020 08:40:00 8.1 C 68 % 2.56 C
394 21-04-2020 08:45:00 8.1 C 65 % 1.93 C
395 21-04-2020 08:50:00 8.3 C 62 % 1.46 C
396 21-04-2020 08:55:00 8.7 C 63 % 2.06 C
397 21-04-2020 09:00:00 8.9 C 63 % 2.25 C
398 21-04-2020 09:05:00 9.1 C 65 % 2.88 C
399 21-04-2020 09:10:00 9.3 C 62 % 2.4 C
400 21-04-2020 09:15:00 9.5 C 61 % 2.37 C
Sensor: Nr:Datum:Temp:Feuchte:Taupunkt:
Aussen-T/F 401 21-04-2020 09:20:00 9.7 C 57 % 1.61 C
402 21-04-2020 09:25:00 10 C 58 % 2.13 C
403 21-04-2020 09:30:00 10.2 C 55 % 1.58 C
404 21-04-2020 09:35:00 10.5 C 57 % 2.35 C
405 21-04-2020 09:40:00 10.7 C 54 % 1.78 C
406 21-04-2020 09:45:00 10.8 C 53 % 1.62 C
407 21-04-2020 09:50:00 11.1 C 53 % 1.9 C
408 21-04-2020 09:55:00 11.2 C 54 % 2.25 C
409 21-04-2020 10:00:00 11.3 C 54 % 2.34 C
410 21-04-2020 10:05:00 11.4 C 52 % 1.91 C
411 21-04-2020 10:10:00 11.7 C 53 % 2.45 C
412 21-04-2020 10:15:00 11.7 C 52 % 2.18 C
413 21-04-2020 10:20:00 11.9 C 49 % 1.54 C
414 21-04-2020 10:25:00 12.2 C 48 % 1.53 C
415 21-04-2020 10:30:00 12.5 C 48 % 1.8 C
416 21-04-2020 10:35:00 12.7 C 48 % 1.99 C
417 21-04-2020 10:40:00 12.8 C 46 % 1.48 C
418 21-04-2020 10:45:00 13.1 C 46 % 1.76 C
419 21-04-2020 10:50:00 13.3 C 47 % 2.24 C
420 21-04-2020 10:55:00 13.4 C 45 % 1.72 C
421 21-04-2020 11:00:00 13.6 C 44 % 1.59 C
422 21-04-2020 11:05:00 13.8 C 44 % 1.77 C
423 21-04-2020 11:10:00 14 C 45 % 2.27 C
424 21-04-2020 11:15:00 14.2 C 43 % 1.81 C
425 21-04-2020 11:20:00 14.4 C 42 % 1.67 C
Sensor: Nr:Datum:Temp:Feuchte:Taupunkt:
Aussen-T/F 426 21-04-2020 11:25:00 14.5 C 43 % 2.09 C
427 21-04-2020 11:30:00 14.6 C 42 % 1.85 C
428 21-04-2020 11:35:00 14.7 C 42 % 1.94 C
429 21-04-2020 11:40:00 14.8 C 42 % 2.03 C
430 21-04-2020 11:45:00 15 C 41 % 1.87 C
431 21-04-2020 11:50:00 15.2 C 41 % 2.05 C
432 21-04-2020 11:55:00 15.4 C 40 % 1.89 C
433 21-04-2020 12:00:00 15.6 C 41 % 2.41 C
434 21-04-2020 12:05:00 15.7 C 40 % 2.15 C
435 21-04-2020 12:10:00 15.8 C 38 % 1.53 C
436 21-04-2020 12:15:00 15.9 C 38 % 1.62 C
437 21-04-2020 12:20:00 16.1 C 37 % 1.42 C
438 21-04-2020 12:25:00 16.1 C 38 % 1.79 C
439 21-04-2020 12:30:00 16.2 C 37 % 1.51 C
440 21-04-2020 12:35:00 16.3 C 37 % 1.6 C
441 21-04-2020 12:40:00 16.3 C 37 % 1.6 C
442 21-04-2020 12:45:00 16.4 C 37 % 1.69 C
443 21-04-2020 12:50:00 16.6 C 37 % 1.87 C
444 21-04-2020 12:55:00 16.7 C 37 % 1.96 C
445 21-04-2020 13:00:00 16.8 C 36 % 1.66 C
446 21-04-2020 13:05:00 16.9 C 36 % 1.75 C
447 21-04-2020 13:10:00 17.1 C 36 % 1.93 C
448 21-04-2020 13:15:00 17.2 C 36 % 2.02 C
449 21-04-2020 13:20:00 17.2 C 35 % 1.62 C
450 21-04-2020 13:25:00 17.3 C 36 % 2.1 C
Sensor: Nr:Datum:Temp:Feuchte:Taupunkt:
Aussen-T/F 451 21-04-2020 13:30:00 17.4 C 36 % 2.19 C
452 21-04-2020 13:35:00 17.4 C 35 % 1.8 C
453 21-04-2020 13:40:00 17.7 C 35 % 2.06 C
454 21-04-2020 13:45:00 17.8 C 34 % 1.75 C
455 21-04-2020 13:50:00 17.9 C 33 % 1.42 C
456 21-04-2020 13:55:00 18.1 C 34 % 2.01 C
457 21-04-2020 14:00:00 18.3 C 34 % 2.19 C
458 21-04-2020 14:05:00 18.4 C 33 % 1.86 C
459 21-04-2020 14:10:00 18.5 C 33 % 1.94 C
460 21-04-2020 14:15:00 18.7 C 32 % 1.69 C
461 21-04-2020 14:20:00 18.8 C 33 % 2.21 C
462 21-04-2020 14:25:00 18.8 C 32 % 1.78 C
463 21-04-2020 14:30:00 18.9 C 32 % 1.86 C
464 21-04-2020 14:35:00 19.1 C 33 % 2.47 C
465 21-04-2020 14:40:00 19.3 C 32 % 2.21 C
466 21-04-2020 14:45:00 19.4 C 32 % 2.3 C
467 21-04-2020 14:50:00 19.6 C 32 % 2.47 C
468 21-04-2020 14:55:00 19.7 C 31 % 2.12 C
469 21-04-2020 15:00:00 19.8 C 31 % 2.2 C
470 21-04-2020 15:05:00 19.9 C 31 % 2.29 C
471 21-04-2020 15:10:00 20 C 30 % 1.92 C
472 21-04-2020 15:15:00 19.9 C 31 % 2.29 C
473 21-04-2020 15:20:00 20 C 31 % 2.38 C
474 21-04-2020 15:25:00 20.1 C 31 % 2.46 C
475 21-04-2020 15:30:00 20.2 C 31 % 2.55 C
Sensor: Nr:Datum:Temp:Feuchte:Taupunkt:
Aussen-T/F 476 21-04-2020 15:35:00 20.3 C 30 % 2.18 C
477 21-04-2020 15:40:00 20.5 C 31 % 2.81 C
478 21-04-2020 15:45:00 20.7 C 31 % 2.98 C
479 21-04-2020 15:50:00 20.6 C 30 % 2.44 C
480 21-04-2020 15:55:00 20.6 C 30 % 2.44 C
481 21-04-2020 16:00:00 20.5 C 30 % 2.35 C
482 21-04-2020 16:05:00 20.7 C 31 % 2.98 C
483 21-04-2020 16:10:00 20.7 C 30 % 2.52 C
484 21-04-2020 16:15:00 20.7 C 31 % 2.98 C
485 21-04-2020 16:20:00 20.7 C 30 % 2.52 C
486 21-04-2020 16:25:00 20.7 C 31 % 2.98 C
487 21-04-2020 16:30:00 20.8 C 30 % 2.61 C
488 21-04-2020 16:35:00 20.9 C 31 % 3.16 C
489 21-04-2020 16:40:00 21 C 29 % 2.31 C
490 21-04-2020 16:45:00 21.1 C 30 % 2.87 C
491 21-04-2020 16:50:00 20.9 C 29 % 2.22 C
492 21-04-2020 16:55:00 21 C 31 % 3.24 C
493 21-04-2020 17:00:00 21.1 C 30 % 2.87 C
494 21-04-2020 17:05:00 21.3 C 30 % 3.04 C
495 21-04-2020 17:10:00 21.5 C 31 % 3.68 C
496 21-04-2020 17:15:00 21.8 C 30 % 3.47 C
497 21-04-2020 17:20:00 21.7 C 29 % 2.91 C
498 21-04-2020 17:25:00 21.2 C 30 % 2.95 C
499 21-04-2020 17:30:00 20.9 C 30 % 2.69 C
500 21-04-2020 17:35:00 20.7 C 31 % 2.98 C
Sensor: Nr:Datum:Temp:Feuchte:Taupunkt:
Aussen-T/F 501 21-04-2020 17:40:00 20.8 C 32 % 3.52 C
502 21-04-2020 17:45:00 20.8 C 31 % 3.07 C
503 21-04-2020 17:50:00 20.8 C 32 % 3.52 C
504 21-04-2020 17:55:00 21.1 C 32 % 3.78 C
505 21-04-2020 18:00:00 20.8 C 31 % 3.07 C
506 21-04-2020 18:05:00 20.8 C 31 % 3.07 C
507 21-04-2020 18:10:00 21.1 C 32 % 3.78 C
508 21-04-2020 18:15:00 21.2 C 31 % 3.42 C
509 21-04-2020 18:20:00 20.9 C 32 % 3.61 C
510 21-04-2020 18:25:00 20.8 C 32 % 3.52 C
511 21-04-2020 18:30:00 20.7 C 32 % 3.43 C
512 21-04-2020 18:35:00 20.7 C 32 % 3.43 C
513 21-04-2020 18:40:00 20.7 C 33 % 3.87 C
514 21-04-2020 18:45:00 20.7 C 33 % 3.87 C
515 21-04-2020 18:50:00 20.8 C 33 % 3.95 C
516 21-04-2020 18:55:00 20.9 C 33 % 4.04 C
517 21-04-2020 19:00:00 20.7 C 33 % 3.87 C
518 21-04-2020 19:05:00 20.4 C 33 % 3.6 C
519 21-04-2020 19:10:00 20.1 C 33 % 3.34 C
520 21-04-2020 19:15:00 20 C 34 % 3.68 C
521 21-04-2020 19:20:00 19.9 C 35 % 4 C
522 21-04-2020 19:25:00 19.7 C 35 % 3.82 C
523 21-04-2020 19:30:00 19.5 C 35 % 3.65 C
524 21-04-2020 19:35:00 19.3 C 35 % 3.47 C
525 21-04-2020 19:40:00 19.1 C 35 % 3.3 C
Sensor: Nr:Datum:Temp:Feuchte:Taupunkt:
Aussen-T/F 526 21-04-2020 19:45:00 18.8 C 36 % 3.43 C
527 21-04-2020 19:50:00 18.8 C 36 % 3.43 C
528 21-04-2020 19:55:00 18.7 C 39 % 4.48 C
529 21-04-2020 20:00:00 18.5 C 37 % 3.55 C
530 21-04-2020 20:05:00 18.3 C 37 % 3.38 C
531 21-04-2020 20:10:00 18.2 C 39 % 4.03 C
532 21-04-2020 20:15:00 17.9 C 39 % 3.76 C
533 21-04-2020 20:20:00 17.6 C 39 % 3.5 C
534 21-04-2020 20:25:00 17.3 C 40 % 3.59 C
535 21-04-2020 20:30:00 17.1 C 40 % 3.41 C
536 21-04-2020 20:35:00 16.8 C 43 % 4.16 C
537 21-04-2020 20:40:00 16.6 C 42 % 3.65 C
538 21-04-2020 20:45:00 16.3 C 43 % 3.71 C
539 21-04-2020 20:50:00 16 C 45 % 4.09 C
540 21-04-2020 20:55:00 15.6 C 45 % 3.72 C
541 21-04-2020 21:00:00 15.3 C 47 % 4.07 C
542 21-04-2020 21:05:00 15.1 C 45 % 3.27 C
543 21-04-2020 21:10:00 14.9 C 45 % 3.09 C
544 21-04-2020 21:15:00 14.9 C 48 % 4 C
545 21-04-2020 21:20:00 14.8 C 47 % 3.61 C
546 21-04-2020 21:25:00 14.7 C 48 % 3.82 C
547 21-04-2020 21:30:00 14.4 C 47 % 3.25 C
548 21-04-2020 21:35:00 14.4 C 47 % 3.25 C
549 21-04-2020 21:40:00 14.4 C 50 % 4.12 C
550 21-04-2020 21:45:00 14.2 C 50 % 3.94 C
Sensor: Nr:Datum:Temp:Feuchte:Taupunkt:
Aussen-T/F 551 21-04-2020 21:50:00 13.8 C 51 % 3.85 C
552 21-04-2020 21:55:00 13.6 C 50 % 3.39 C
553 21-04-2020 22:00:00 13.6 C 52 % 3.94 C
554 21-04-2020 22:05:00 13.4 C 52 % 3.76 C
555 21-04-2020 22:10:00 13.1 C 54 % 4.01 C
556 21-04-2020 22:15:00 13.2 C 52 % 3.57 C
557 21-04-2020 22:20:00 13.4 C 51 % 3.48 C
558 21-04-2020 22:25:00 13.5 C 52 % 3.85 C
559 21-04-2020 22:30:00 13.3 C 51 % 3.39 C
560 21-04-2020 22:35:00 13.2 C 53 % 3.84 C
561 21-04-2020 22:40:00 12.9 C 53 % 3.56 C
562 21-04-2020 22:45:00 12.6 C 55 % 3.81 C
563 21-04-2020 22:50:00 12.4 C 56 % 3.88 C
564 21-04-2020 22:55:00 12.3 C 56 % 3.79 C
565 21-04-2020 23:00:00 12.2 C 56 % 3.69 C
566 21-04-2020 23:05:00 12.2 C 56 % 3.69 C
567 21-04-2020 23:10:00 12.2 C 55 % 3.44 C
568 21-04-2020 23:15:00 12.2 C 57 % 3.94 C
569 21-04-2020 23:20:00 12 C 57 % 3.76 C
570 21-04-2020 23:25:00 12 C 57 % 3.76 C
571 21-04-2020 23:30:00 11.9 C 57 % 3.66 C
572 21-04-2020 23:35:00 11.8 C 57 % 3.57 C
573 21-04-2020 23:40:00 11.7 C 58 % 3.72 C
574 21-04-2020 23:45:00 11.6 C 58 % 3.63 C
575 21-04-2020 23:50:00 11.6 C 58 % 3.63 C
Sensor: Nr:Datum:Temp:Feuchte:Taupunkt:
Aussen-T/F 576 21-04-2020 23:55:00 11.5 C 58 % 3.54 C
577 22-04-2020 00:00:00 11.4 C 58 % 3.44 C
578 22-04-2020 00:05:00 11.3 C 58 % 3.35 C
579 22-04-2020 00:10:00 11.2 C 60 % 3.73 C
580 22-04-2020 00:15:00 11.1 C 59 % 3.4 C
581 22-04-2020 00:20:00 11 C 58 % 3.07 C
582 22-04-2020 00:25:00 11.2 C 58 % 3.25 C
583 22-04-2020 00:30:00 11.4 C 59 % 3.68 C
584 22-04-2020 00:35:00 11.4 C 58 % 3.44 C
585 22-04-2020 00:40:00 11.4 C 57 % 3.2 C
586 22-04-2020 00:45:00 11.4 C 59 % 3.68 C
587 22-04-2020 00:50:00 11.3 C 59 % 3.59 C
588 22-04-2020 00:55:00 11.3 C 57 % 3.1 C
589 22-04-2020 01:00:00 11.3 C 58 % 3.35 C
590 22-04-2020 01:05:00 11.2 C 58 % 3.25 C
591 22-04-2020 01:10:00 11.1 C 59 % 3.4 C
592 22-04-2020 01:15:00 10.9 C 60 % 3.45 C
593 22-04-2020 01:20:00 10.7 C 61 % 3.5 C
594 22-04-2020 01:25:00 10.4 C 62 % 3.44 C
595 22-04-2020 01:30:00 10.2 C 62 % 3.25 C
596 22-04-2020 01:35:00 10.1 C 63 % 3.39 C
597 22-04-2020 01:40:00 10.1 C 63 % 3.39 C
598 22-04-2020 01:45:00 10.1 C 63 % 3.39 C
599 22-04-2020 01:50:00 10.1 C 63 % 3.39 C
600 22-04-2020 01:55:00 10.2 C 63 % 3.48 C
Sensor: Nr:Datum:Temp:Feuchte:Taupunkt:
Aussen-T/F 601 22-04-2020 02:00:00 10.3 C 62 % 3.35 C
602 22-04-2020 02:05:00 10.3 C 62 % 3.35 C
603 22-04-2020 02:10:00 10.2 C 62 % 3.25 C
604 22-04-2020 02:15:00 10.2 C 63 % 3.48 C
605 22-04-2020 02:20:00 10.1 C 63 % 3.39 C
606 22-04-2020 02:25:00 9.9 C 63 % 3.2 C
607 22-04-2020 02:30:00 9.8 C 64 % 3.32 C
608 22-04-2020 02:35:00 9.8 C 63 % 3.1 C
609 22-04-2020 02:40:00 9.8 C 64 % 3.32 C
610 22-04-2020 02:45:00 9.9 C 63 % 3.2 C
611 22-04-2020 02:50:00 9.8 C 64 % 3.32 C
612 22-04-2020 02:55:00 9.7 C 64 % 3.23 C
613 22-04-2020 03:00:00 9.6 C 64 % 3.14 C
614 22-04-2020 03:05:00 9.6 C 64 % 3.14 C
615 22-04-2020 03:10:00 9.5 C 65 % 3.26 C
616 22-04-2020 03:15:00 9.5 C 65 % 3.26 C
617 22-04-2020 03:20:00 9.5 C 65 % 3.26 C
618 22-04-2020 03:25:00 9.4 C 65 % 3.16 C
619 22-04-2020 03:30:00 9.3 C 65 % 3.07 C
620 22-04-2020 03:35:00 9.2 C 66 % 3.19 C
621 22-04-2020 03:40:00 9.1 C 67 % 3.31 C
622 22-04-2020 03:45:00 8.9 C 67 % 3.12 C
623 22-04-2020 03:50:00 8.8 C 67 % 3.02 C
624 22-04-2020 03:55:00 8.7 C 68 % 3.13 C
625 22-04-2020 04:00:00 8.7 C 67 % 2.92 C
Sensor: Nr:Datum:Temp:Feuchte:Taupunkt:
Aussen-T/F 626 22-04-2020 04:05:00 8.7 C 68 % 3.13 C
627 22-04-2020 04:10:00 8.7 C 67 % 2.92 C
628 22-04-2020 04:15:00 8.6 C 68 % 3.04 C
629 22-04-2020 04:20:00 8.5 C 68 % 2.94 C
630 22-04-2020 04:25:00 8.4 C 68 % 2.85 C
631 22-04-2020 04:30:00 8.4 C 68 % 2.85 C
632 22-04-2020 04:35:00 8.3 C 68 % 2.75 C
633 22-04-2020 04:40:00 8.3 C 68 % 2.75 C
634 22-04-2020 04:45:00 8.2 C 69 % 2.86 C
635 22-04-2020 04:50:00 8.1 C 69 % 2.77 C
636 22-04-2020 04:55:00 8.1 C 69 % 2.77 C
637 22-04-2020 05:00:00 7.9 C 70 % 2.78 C
638 22-04-2020 05:05:00 7.8 C 70 % 2.68 C
639 22-04-2020 05:10:00 7.8 C 71 % 2.88 C
640 22-04-2020 05:15:00 7.7 C 71 % 2.78 C
641 22-04-2020 05:20:00 7.6 C 71 % 2.69 C
642 22-04-2020 05:25:00 7.5 C 71 % 2.59 C
643 22-04-2020 05:30:00 7.4 C 72 % 2.69 C
644 22-04-2020 05:35:00 7.3 C 72 % 2.6 C
645 22-04-2020 05:40:00 7.3 C 72 % 2.6 C
646 22-04-2020 05:45:00 7.2 C 72 % 2.5 C
647 22-04-2020 05:50:00 7.2 C 73 % 2.69 C
648 22-04-2020 05:55:00 7.2 C 72 % 2.5 C
649 22-04-2020 06:00:00 7.1 C 73 % 2.6 C
650 22-04-2020 06:05:00 7 C 73 % 2.5 C
Sensor: Nr:Datum:Temp:Feuchte:Taupunkt:
Aussen-T/F 651 22-04-2020 06:10:00 6.9 C 73 % 2.4 C
652 22-04-2020 06:15:00 6.8 C 73 % 2.31 C
653 22-04-2020 06:20:00 6.7 C 74 % 2.4 C
654 22-04-2020 06:25:00 6.6 C 75 % 2.49 C
655 22-04-2020 06:30:00 6.5 C 75 % 2.4 C
656 22-04-2020 06:35:00 6.4 C 75 % 2.3 C
657 22-04-2020 06:40:00 6.3 C 76 % 2.39 C
658 22-04-2020 06:45:00 6.2 C 77 % 2.48 C
659 22-04-2020 06:50:00 6.2 C 78 % 2.66 C
660 22-04-2020 06:55:00 6.2 C 78 % 2.66 C
661 22-04-2020 07:00:00 6.2 C 78 % 2.66 C
662 22-04-2020 07:05:00 6.2 C 78 % 2.66 C
663 22-04-2020 07:10:00 6.1 C 79 % 2.74 C
664 22-04-2020 07:15:00 6.2 C 79 % 2.84 C
665 22-04-2020 07:20:00 6.1 C 79 % 2.74 C
666 22-04-2020 07:25:00 6.2 C 79 % 2.84 C
667 22-04-2020 07:30:00 6.2 C 80 % 3.01 C
668 22-04-2020 07:35:00 6.2 C 80 % 3.01 C
669 22-04-2020 07:40:00 6.2 C 80 % 3.01 C
670 22-04-2020 07:45:00 6.2 C 80 % 3.01 C
671 22-04-2020 07:50:00 6.2 C 80 % 3.01 C
672 22-04-2020 07:55:00 6.3 C 80 % 3.11 C
673 22-04-2020 08:00:00 6.4 C 79 % 3.03 C
674 22-04-2020 08:05:00 6.6 C 79 % 3.23 C
675 22-04-2020 08:10:00 6.7 C 79 % 3.32 C
Sensor: Nr:Datum:Temp:Feuchte:Taupunkt:
Aussen-T/F 676 22-04-2020 08:15:00 6.8 C 79 % 3.42 C
677 22-04-2020 08:20:00 6.9 C 79 % 3.52 C
678 22-04-2020 08:25:00 7.1 C 78 % 3.53 C
679 22-04-2020 08:30:00 7.2 C 78 % 3.63 C
680 22-04-2020 08:35:00 7.6 C 74 % 3.27 C
681 22-04-2020 08:40:00 8 C 74 % 3.66 C
682 22-04-2020 08:45:00 8.2 C 74 % 3.85 C
683 22-04-2020 08:50:00 8.3 C 73 % 3.75 C
684 22-04-2020 08:55:00 8.5 C 69 % 3.15 C
685 22-04-2020 09:00:00 9.1 C 69 % 3.72 C
686 22-04-2020 09:05:00 9.4 C 66 % 3.38 C
687 22-04-2020 09:10:00 9.6 C 67 % 3.78 C
688 22-04-2020 09:15:00 9.7 C 66 % 3.67 C
689 22-04-2020 09:20:00 9.9 C 62 % 2.97 C
690 22-04-2020 09:25:00 10.4 C 63 % 3.67 C
691 22-04-2020 09:30:00 10.7 C 62 % 3.73 C
692 22-04-2020 09:35:00 10.8 C 61 % 3.59 C
693 22-04-2020 09:40:00 10.9 C 61 % 3.69 C
694 22-04-2020 09:45:00 11.1 C 58 % 3.16 C
695 22-04-2020 09:50:00 11.3 C 57 % 3.1 C
696 22-04-2020 09:55:00 11.5 C 59 % 3.78 C
697 22-04-2020 10:00:00 11.6 C 56 % 3.13 C
698 22-04-2020 10:05:00 11.8 C 58 % 3.82 C
699 22-04-2020 10:10:00 12.1 C 55 % 3.34 C
700 22-04-2020 10:15:00 12.4 C 56 % 3.88 C
Sensor: Nr:Datum:Temp:Feuchte:Taupunkt:
Aussen-T/F 701 22-04-2020 10:20:00 12.8 C 50 % 2.65 C
702 22-04-2020 10:25:00 13.1 C 53 % 3.75 C
703 22-04-2020 10:30:00 13.2 C 52 % 3.57 C
704 22-04-2020 10:35:00 13.5 C 50 % 3.29 C
705 22-04-2020 10:40:00 13.7 C 49 % 3.19 C
706 22-04-2020 10:45:00 14 C 48 % 3.18 C
707 22-04-2020 10:50:00 14.3 C 46 % 2.85 C
708 22-04-2020 10:55:00 14.6 C 46 % 3.12 C
709 22-04-2020 11:00:00 14.8 C 44 % 2.68 C
710 22-04-2020 11:05:00 15.1 C 44 % 2.95 C
711 22-04-2020 11:10:00 15.3 C 44 % 3.13 C
712 22-04-2020 11:15:00 15.4 C 44 % 3.22 C
713 22-04-2020 11:20:00 15.7 C 43 % 3.17 C
714 22-04-2020 11:25:00 15.8 C 43 % 3.26 C
715 22-04-2020 11:30:00 15.9 C 43 % 3.35 C
716 22-04-2020 11:35:00 16.1 C 40 % 2.51 C
717 22-04-2020 11:40:00 16.3 C 40 % 2.69 C
718 22-04-2020 11:45:00 16.6 C 41 % 3.31 C
719 22-04-2020 11:50:00 16.7 C 39 % 2.69 C
720 22-04-2020 11:55:00 16.8 C 39 % 2.78 C
721 22-04-2020 12:00:00 17 C 38 % 2.6 C
722 22-04-2020 12:05:00 17.2 C 37 % 2.4 C
723 22-04-2020 12:10:00 17.3 C 37 % 2.49 C
724 22-04-2020 12:15:00 17.5 C 37 % 2.67 C
725 22-04-2020 12:20:00 17.7 C 36 % 2.46 C
Sensor: Nr:Datum:Temp:Feuchte:Taupunkt:
Aussen-T/F 726 22-04-2020 12:25:00 17.8 C 36 % 2.55 C
727 22-04-2020 12:30:00 17.9 C 34 % 1.83 C
728 22-04-2020 12:35:00 17.8 C 35 % 2.15 C
729 22-04-2020 12:40:00 17.8 C 34 % 1.75 C
730 22-04-2020 12:45:00 17.8 C 34 % 1.75 C
731 22-04-2020 12:50:00 17.9 C 35 % 2.24 C
732 22-04-2020 12:55:00 18.1 C 34 % 2.01 C
733 22-04-2020 13:00:00 18.2 C 35 % 2.5 C
734 22-04-2020 13:05:00 18.4 C 35 % 2.68 C
735 22-04-2020 13:10:00 18.6 C 34 % 2.45 C
736 22-04-2020 13:15:00 18.8 C 35 % 3.03 C
737 22-04-2020 13:20:00 18.8 C 34 % 2.62 C
738 22-04-2020 13:25:00 18.9 C 36 % 3.52 C
739 22-04-2020 13:30:00 19 C 35 % 3.21 C
740 22-04-2020 13:35:00 19.1 C 34 % 2.89 C
741 22-04-2020 13:40:00 19.2 C 33 % 2.56 C
742 22-04-2020 13:45:00 19.3 C 33 % 2.64 C
743 22-04-2020 13:50:00 19.4 C 33 % 2.73 C
744 22-04-2020 13:55:00 19.5 C 33 % 2.82 C
745 22-04-2020 14:00:00 19.6 C 33 % 2.91 C
746 22-04-2020 14:05:00 19.7 C 34 % 3.41 C
747 22-04-2020 14:10:00 19.8 C 35 % 3.91 C
748 22-04-2020 14:15:00 20 C 33 % 3.26 C
749 22-04-2020 14:20:00 20 C 33 % 3.26 C
750 22-04-2020 14:25:00 20.1 C 33 % 3.34 C
Sensor: Nr:Datum:Temp:Feuchte:Taupunkt:
Aussen-T/F 751 22-04-2020 14:30:00 20.3 C 33 % 3.52 C
752 22-04-2020 14:35:00 20.4 C 32 % 3.17 C
753 22-04-2020 14:40:00 20.4 C 32 % 3.17 C
754 22-04-2020 14:45:00 20.6 C 32 % 3.34 C
755 22-04-2020 14:50:00 20.6 C 31 % 2.9 C
756 22-04-2020 14:55:00 20.7 C 33 % 3.87 C
757 22-04-2020 15:00:00 20.8 C 31 % 3.07 C
758 22-04-2020 15:05:00 20.9 C 32 % 3.61 C
759 22-04-2020 15:10:00 21.1 C 31 % 3.33 C
760 22-04-2020 15:15:00 21.1 C 31 % 3.33 C
761 22-04-2020 15:20:00 21.2 C 31 % 3.42 C
762 22-04-2020 15:25:00 21.3 C 31 % 3.5 C
763 22-04-2020 15:30:00 21.4 C 31 % 3.59 C
764 22-04-2020 15:35:00 21.7 C 30 % 3.39 C
765 22-04-2020 15:40:00 21.7 C 31 % 3.85 C
766 22-04-2020 15:45:00 21.7 C 30 % 3.39 C
767 22-04-2020 15:50:00 21.9 C 30 % 3.56 C
768 22-04-2020 15:55:00 22.1 C 29 % 3.25 C
769 22-04-2020 16:00:00 22.2 C 30 % 3.82 C
770 22-04-2020 16:05:00 22.2 C 29 % 3.34 C
771 22-04-2020 16:10:00 22.2 C 29 % 3.34 C
772 22-04-2020 16:15:00 22.3 C 29 % 3.42 C
773 22-04-2020 16:20:00 22.6 C 30 % 4.16 C
774 22-04-2020 16:25:00 22.7 C 29 % 3.77 C
775 22-04-2020 16:30:00 22.9 C 29 % 3.94 C
Sensor: Nr:Datum:Temp:Feuchte:Taupunkt:
Aussen-T/F 776 22-04-2020 16:35:00 23.1 C 27 % 3.1 C
777 22-04-2020 16:40:00 22.8 C 28 % 3.36 C
778 22-04-2020 16:45:00 22.5 C 28 % 3.1 C
779 22-04-2020 16:50:00 22.6 C 28 % 3.19 C
780 22-04-2020 16:55:00 22.8 C 29 % 3.85 C
781 22-04-2020 17:00:00 22.9 C 28 % 3.44 C
782 22-04-2020 17:05:00 22.7 C 28 % 3.27 C
783 22-04-2020 17:10:00 22.5 C 29 % 3.6 C
784 22-04-2020 17:15:00 22.4 C 28 % 3.01 C
785 22-04-2020 17:20:00 22.3 C 28 % 2.93 C
786 22-04-2020 17:25:00 22.3 C 29 % 3.42 C
787 22-04-2020 17:30:00 22.6 C 29 % 3.68 C
788 22-04-2020 17:35:00 22.8 C 28 % 3.36 C
789 22-04-2020 17:40:00 22.9 C 28 % 3.44 C
790 22-04-2020 17:45:00 23 C 28 % 3.53 C
791 22-04-2020 17:50:00 22.8 C 28 % 3.36 C
792 22-04-2020 17:55:00 22.7 C 28 % 3.27 C
793 22-04-2020 18:00:00 22.7 C 28 % 3.27 C
794 22-04-2020 18:05:00 22.7 C 28 % 3.27 C
795 22-04-2020 18:10:00 22.6 C 28 % 3.19 C
796 22-04-2020 18:15:00 22.4 C 28 % 3.01 C
797 22-04-2020 18:20:00 22.2 C 28 % 2.84 C
798 22-04-2020 18:25:00 22.2 C 28 % 2.84 C
799 22-04-2020 18:30:00 22.3 C 29 % 3.42 C
800 22-04-2020 18:35:00 22.3 C 28 % 2.93 C
Sensor: Nr:Datum:Temp:Feuchte:Taupunkt:
Aussen-T/F 801 22-04-2020 18:40:00 22.3 C 29 % 3.42 C
802 22-04-2020 18:45:00 22.4 C 28 % 3.01 C
803 22-04-2020 18:50:00 22.3 C 28 % 2.93 C
804 22-04-2020 18:55:00 22.2 C 28 % 2.84 C
805 22-04-2020 19:00:00 22.2 C 28 % 2.84 C
806 22-04-2020 19:05:00 21.8 C 30 % 3.47 C
807 22-04-2020 19:10:00 21.8 C 30 % 3.47 C
808 22-04-2020 19:15:00 21.8 C 29 % 2.99 C
809 22-04-2020 19:20:00 21.7 C 29 % 2.91 C
810 22-04-2020 19:25:00 21.4 C 30 % 3.13 C
811 22-04-2020 19:30:00 21.2 C 30 % 2.95 C
812 22-04-2020 19:35:00 20.9 C 30 % 2.69 C
813 22-04-2020 19:40:00 20.8 C 30 % 2.61 C
814 22-04-2020 19:45:00 20.7 C 31 % 2.98 C
815 22-04-2020 19:50:00 20.6 C 32 % 3.34 C
816 22-04-2020 19:55:00 20.4 C 31 % 2.72 C
817 22-04-2020 20:00:00 20.3 C 33 % 3.52 C
818 22-04-2020 20:05:00 20.3 C 33 % 3.52 C
819 22-04-2020 20:10:00 20.1 C 36 % 4.58 C
820 22-04-2020 20:15:00 19.7 C 38 % 5 C
821 22-04-2020 20:20:00 19.2 C 35 % 3.38 C
822 22-04-2020 20:25:00 18.7 C 38 % 4.11 C
823 22-04-2020 20:30:00 18.1 C 40 % 4.3 C
824 22-04-2020 20:35:00 17.4 C 38 % 2.95 C
825 22-04-2020 20:40:00 17.2 C 42 % 4.19 C
Sensor: Nr:Datum:Temp:Feuchte:Taupunkt:
Aussen-T/F 826 22-04-2020 20:45:00 16.8 C 43 % 4.16 C
827 22-04-2020 20:50:00 16.5 C 43 % 3.89 C
828 22-04-2020 20:55:00 16.3 C 42 % 3.38 C
829 22-04-2020 21:00:00 16.1 C 41 % 2.86 C
830 22-04-2020 21:05:00 16.1 C 44 % 3.86 C
831 22-04-2020 21:10:00 15.8 C 44 % 3.59 C
832 22-04-2020 21:15:00 15.6 C 46 % 4.03 C
833 22-04-2020 21:20:00 15.2 C 46 % 3.67 C
834 22-04-2020 21:25:00 14.9 C 46 % 3.4 C
835 22-04-2020 21:30:00 14.7 C 48 % 3.82 C
836 22-04-2020 21:35:00 14.4 C 49 % 3.83 C
837 22-04-2020 21:40:00 14.3 C 50 % 4.03 C
838 22-04-2020 21:45:00 14.2 C 50 % 3.94 C
839 22-04-2020 21:50:00 14.2 C 50 % 3.94 C
840 22-04-2020 21:55:00 14.1 C 51 % 4.13 C
841 22-04-2020 22:00:00 14 C 51 % 4.04 C
842 22-04-2020 22:05:00 13.8 C 51 % 3.85 C
843 22-04-2020 22:10:00 13.7 C 50 % 3.48 C
844 22-04-2020 22:15:00 13.7 C 52 % 4.03 C
845 22-04-2020 22:20:00 13.7 C 51 % 3.76 C
846 22-04-2020 22:25:00 13.8 C 51 % 3.85 C
847 22-04-2020 22:30:00 13.9 C 52 % 4.22 C
848 22-04-2020 22:35:00 13.9 C 52 % 4.22 C
849 22-04-2020 22:40:00 13.8 C 49 % 3.28 C
850 22-04-2020 22:45:00 13.8 C 51 % 3.85 C
Sensor: Nr:Datum:Temp:Feuchte:Taupunkt:
Aussen-T/F 851 22-04-2020 22:50:00 13.8 C 51 % 3.85 C
852 22-04-2020 22:55:00 13.9 C 51 % 3.94 C
853 22-04-2020 23:00:00 13.8 C 52 % 4.13 C
854 22-04-2020 23:05:00 13.8 C 51 % 3.85 C
855 22-04-2020 23:10:00 14 C 52 % 4.31 C
856 22-04-2020 23:15:00 13.9 C 49 % 3.38 C
857 22-04-2020 23:20:00 14 C 51 % 4.04 C
858 22-04-2020 23:25:00 13.9 C 51 % 3.94 C
859 22-04-2020 23:30:00 13.8 C 51 % 3.85 C
860 22-04-2020 23:35:00 13.7 C 51 % 3.76 C
861 22-04-2020 23:40:00 13.6 C 53 % 4.21 C
862 22-04-2020 23:45:00 13.6 C 51 % 3.67 C
863 22-04-2020 23:50:00 13.5 C 52 % 3.85 C
864 22-04-2020 23:55:00 13.3 C 53 % 3.93 C
865 23-04-2020 00:00:00 13.1 C 53 % 3.75 C
866 23-04-2020 00:05:00 13 C 55 % 4.18 C
867 23-04-2020 00:10:00 12.9 C 55 % 4.09 C
868 23-04-2020 00:15:00 12.9 C 54 % 3.83 C
869 23-04-2020 00:20:00 12.8 C 54 % 3.74 C
870 23-04-2020 00:25:00 12.8 C 54 % 3.74 C
871 23-04-2020 00:30:00 12.8 C 55 % 4 C
872 23-04-2020 00:35:00 12.8 C 55 % 4 C
873 23-04-2020 00:40:00 12.9 C 55 % 4.09 C
874 23-04-2020 00:45:00 12.8 C 55 % 4 C
875 23-04-2020 00:50:00 12.7 C 54 % 3.64 C
Sensor: Nr:Datum:Temp:Feuchte:Taupunkt:
Aussen-T/F 876 23-04-2020 00:55:00 12.7 C 55 % 3.9 C
877 23-04-2020 01:00:00 12.6 C 56 % 4.07 C
878 23-04-2020 01:05:00 12.6 C 55 % 3.81 C
879 23-04-2020 01:10:00 12.6 C 56 % 4.07 C
880 23-04-2020 01:15:00 12.4 C 56 % 3.88 C
881 23-04-2020 01:20:00 12.2 C 57 % 3.94 C
882 23-04-2020 01:25:00 12.1 C 56 % 3.6 C
883 23-04-2020 01:30:00 12.1 C 56 % 3.6 C
884 23-04-2020 01:35:00 12.2 C 58 % 4.19 C
885 23-04-2020 01:40:00 11.9 C 58 % 3.91 C
886 23-04-2020 01:45:00 11.7 C 59 % 3.97 C
887 23-04-2020 01:50:00 11.4 C 60 % 3.92 C
888 23-04-2020 01:55:00 11.2 C 61 % 3.97 C
889 23-04-2020 02:00:00 11 C 62 % 4.01 C
890 23-04-2020 02:05:00 10.7 C 62 % 3.73 C
891 23-04-2020 02:10:00 10.5 C 63 % 3.77 C
892 23-04-2020 02:15:00 10.3 C 64 % 3.8 C
893 23-04-2020 02:20:00 10.2 C 65 % 3.92 C
894 23-04-2020 02:25:00 10.2 C 65 % 3.92 C
895 23-04-2020 02:30:00 10.3 C 64 % 3.8 C
896 23-04-2020 02:35:00 10.4 C 64 % 3.89 C
897 23-04-2020 02:40:00 10.4 C 64 % 3.89 C
898 23-04-2020 02:45:00 10.3 C 65 % 4.02 C
899 23-04-2020 02:50:00 10.1 C 65 % 3.83 C
900 23-04-2020 02:55:00 9.9 C 65 % 3.64 C
Sensor: Nr:Datum:Temp:Feuchte:Taupunkt:
Aussen-T/F 901 23-04-2020 03:00:00 9.9 C 66 % 3.86 C
902 23-04-2020 03:05:00 9.8 C 66 % 3.76 C
903 23-04-2020 03:10:00 9.7 C 67 % 3.88 C
904 23-04-2020 03:15:00 9.7 C 67 % 3.88 C
905 23-04-2020 03:20:00 9.6 C 67 % 3.78 C
906 23-04-2020 03:25:00 9.5 C 67 % 3.69 C
907 23-04-2020 03:30:00 9.4 C 68 % 3.8 C
908 23-04-2020 03:35:00 9.4 C 68 % 3.8 C
909 23-04-2020 03:40:00 9.3 C 68 % 3.71 C
910 23-04-2020 03:45:00 9.3 C 68 % 3.71 C
911 23-04-2020 03:50:00 9.3 C 67 % 3.5 C
912 23-04-2020 03:55:00 9.3 C 68 % 3.71 C
913 23-04-2020 04:00:00 9.2 C 68 % 3.61 C
914 23-04-2020 04:05:00 9.1 C 68 % 3.52 C
915 23-04-2020 04:10:00 8.9 C 69 % 3.53 C
916 23-04-2020 04:15:00 8.8 C 69 % 3.44 C
917 23-04-2020 04:20:00 8.6 C 70 % 3.45 C
918 23-04-2020 04:25:00 8.4 C 71 % 3.46 C
919 23-04-2020 04:30:00 8.3 C 72 % 3.56 C
920 23-04-2020 04:35:00 8.1 C 73 % 3.56 C
921 23-04-2020 04:40:00 7.9 C 73 % 3.37 C
922 23-04-2020 04:45:00 7.8 C 74 % 3.46 C
923 23-04-2020 04:50:00 7.8 C 74 % 3.46 C
924 23-04-2020 04:55:00 7.8 C 75 % 3.65 C
925 23-04-2020 05:00:00 7.6 C 75 % 3.46 C
Sensor: Nr:Datum:Temp:Feuchte:Taupunkt:
Aussen-T/F 926 23-04-2020 05:05:00 7.4 C 75 % 3.27 C
927 23-04-2020 05:10:00 7.3 C 76 % 3.36 C
928 23-04-2020 05:15:00 7.2 C 76 % 3.26 C
929 23-04-2020 05:20:00 7.1 C 77 % 3.35 C
930 23-04-2020 05:25:00 6.9 C 77 % 3.16 C
931 23-04-2020 05:30:00 6.8 C 78 % 3.24 C
932 23-04-2020 05:35:00 6.7 C 78 % 3.14 C
933 23-04-2020 05:40:00 6.7 C 78 % 3.14 C
934 23-04-2020 05:45:00 6.7 C 78 % 3.14 C
935 23-04-2020 05:50:00 6.7 C 79 % 3.32 C
936 23-04-2020 05:55:00 6.6 C 79 % 3.23 C
937 23-04-2020 06:00:00 6.6 C 79 % 3.23 C
938 23-04-2020 06:05:00 6.5 C 79 % 3.13 C
939 23-04-2020 06:10:00 6.5 C 79 % 3.13 C
940 23-04-2020 06:15:00 6.4 C 79 % 3.03 C
941 23-04-2020 06:20:00 6.3 C 79 % 2.93 C
942 23-04-2020 06:25:00 6.3 C 80 % 3.11 C
943 23-04-2020 06:30:00 6.2 C 80 % 3.01 C
944 23-04-2020 06:35:00 6.2 C 80 % 3.01 C
945 23-04-2020 06:40:00 6.2 C 80 % 3.01 C
946 23-04-2020 06:45:00 6.2 C 80 % 3.01 C
947 23-04-2020 06:50:00 6.1 C 81 % 3.09 C
948 23-04-2020 06:55:00 6.1 C 81 % 3.09 C
949 23-04-2020 07:00:00 6.1 C 81 % 3.09 C
950 23-04-2020 07:05:00 6.1 C 82 % 3.26 C
Sensor: Nr:Datum:Temp:Feuchte:Taupunkt:
Aussen-T/F 951 23-04-2020 07:10:00 6.1 C 82 % 3.26 C
952 23-04-2020 07:15:00 6 C 82 % 3.17 C
953 23-04-2020 07:20:00 5.9 C 83 % 3.24 C
954 23-04-2020 07:25:00 5.9 C 84 % 3.41 C
955 23-04-2020 07:30:00 5.9 C 84 % 3.41 C
956 23-04-2020 07:35:00 5.9 C 85 % 3.58 C
957 23-04-2020 07:40:00 5.9 C 85 % 3.58 C
958 23-04-2020 07:45:00 5.9 C 85 % 3.58 C
959 23-04-2020 07:50:00 5.9 C 85 % 3.58 C
960 23-04-2020 07:55:00 5.9 C 86 % 3.74 C
961 23-04-2020 08:00:00 5.9 C 86 % 3.74 C
962 23-04-2020 08:05:00 5.9 C 86 % 3.74 C
963 23-04-2020 08:10:00 5.9 C 86 % 3.74 C
964 23-04-2020 08:15:00 6 C 87 % 4 C
965 23-04-2020 08:20:00 6.1 C 87 % 4.1 C
966 23-04-2020 08:25:00 6.2 C 87 % 4.2 C
967 23-04-2020 08:30:00 6.2 C 87 % 4.2 C
968 23-04-2020 08:35:00 6.3 C 87 % 4.3 C
969 23-04-2020 08:40:00 6.4 C 87 % 4.4 C
970 23-04-2020 08:45:00 6.6 C 87 % 4.6 C
971 23-04-2020 08:50:00 6.8 C 87 % 4.79 C
972 23-04-2020 08:55:00 6.9 C 87 % 4.89 C
973 23-04-2020 09:00:00 7.1 C 86 % 4.92 C
974 23-04-2020 09:05:00 7.3 C 86 % 5.12 C
975 23-04-2020 09:10:00 7.5 C 86 % 5.31 C
Sensor: Nr:Datum:Temp:Feuchte:Taupunkt:
Aussen-T/F 976 23-04-2020 09:15:00 7.8 C 85 % 5.44 C
977 23-04-2020 09:20:00 8 C 84 % 5.47 C
978 23-04-2020 09:25:00 8.2 C 83 % 5.49 C
979 23-04-2020 09:30:00 8.5 C 83 % 5.78 C
980 23-04-2020 09:35:00 8.7 C 82 % 5.8 C
981 23-04-2020 09:40:00 8.9 C 82 % 6 C
982 23-04-2020 09:45:00 9.2 C 80 % 5.94 C
983 23-04-2020 09:50:00 9.4 C 80 % 6.13 C
984 23-04-2020 09:55:00 9.6 C 79 % 6.14 C
985 23-04-2020 10:00:00 9.9 C 78 % 6.25 C
986 23-04-2020 10:05:00 10.2 C 78 % 6.54 C
987 23-04-2020 10:10:00 10.4 C 77 % 6.55 C
988 23-04-2020 10:15:00 10.6 C 76 % 6.55 C
989 23-04-2020 10:20:00 11 C 72 % 6.15 C
990 23-04-2020 10:25:00 11.4 C 71 % 6.34 C
991 23-04-2020 10:30:00 11.8 C 70 % 6.51 C
992 23-04-2020 10:35:00 12.1 C 70 % 6.8 C
993 23-04-2020 10:40:00 12.4 C 70 % 7.09 C
994 23-04-2020 10:45:00 12.7 C 64 % 6.07 C
995 23-04-2020 10:50:00 13.1 C 64 % 6.45 C
996 23-04-2020 10:55:00 13.8 C 58 % 5.69 C
997 23-04-2020 11:00:00 14.9 C 54 % 5.69 C
998 23-04-2020 11:05:00 15.3 C 59 % 7.34 C
999 23-04-2020 11:10:00 15.6 C 53 % 6.06 C
1000 23-04-2020 11:15:00 15.8 C 51 % 5.69 C
Sensor: Nr:Datum:Temp:Feuchte:Taupunkt:
Aussen-T/F 1001 23-04-2020 11:20:00 16.2 C 49 % 5.49 C
1002 23-04-2020 11:25:00 16.4 C 47 % 5.07 C
1003 23-04-2020 11:30:00 16.8 C 46 % 5.13 C
1004 23-04-2020 11:35:00 16.9 C 52 % 6.99 C
1005 23-04-2020 11:40:00 16.9 C 48 % 5.83 C
1006 23-04-2020 11:45:00 17.1 C 47 % 5.71 C
1007 23-04-2020 11:50:00 17.2 C 47 % 5.8 C
1008 23-04-2020 11:55:00 17.3 C 45 % 5.27 C
1009 23-04-2020 12:00:00 17.5 C 46 % 5.76 C
1010 23-04-2020 12:05:00 17.7 C 44 % 5.31 C
1011 23-04-2020 12:10:00 17.7 C 44 % 5.31 C
1012 23-04-2020 12:15:00 17.9 C 45 % 5.81 C
1013 23-04-2020 12:20:00 18 C 44 % 5.58 C
1014 23-04-2020 12:25:00 18.1 C 44 % 5.67 C
1015 23-04-2020 12:30:00 18.2 C 43 % 5.43 C
1016 23-04-2020 12:35:00 18.3 C 43 % 5.52 C
1017 23-04-2020 12:40:00 18.3 C 43 % 5.52 C
1018 23-04-2020 12:45:00 18.4 C 43 % 5.61 C
1019 23-04-2020 12:50:00 18.4 C 42 % 5.27 C
1020 23-04-2020 12:55:00 18.5 C 41 % 5.01 C
1021 23-04-2020 13:00:00 18.7 C 38 % 4.11 C
1022 23-04-2020 13:05:00 18.9 C 35 % 3.12 C
1023 23-04-2020 13:10:00 19 C 36 % 3.61 C
1024 23-04-2020 13:15:00 19.2 C 35 % 3.38 C
1025 23-04-2020 13:20:00 19.3 C 35 % 3.47 C
Sensor: Nr:Datum:Temp:Feuchte:Taupunkt:
Aussen-T/F 1026 23-04-2020 13:25:00 19.3 C 35 % 3.47 C
1027 23-04-2020 13:30:00 19.4 C 36 % 3.96 C
1028 23-04-2020 13:35:00 19.6 C 35 % 3.74 C
1029 23-04-2020 13:40:00 19.7 C 34 % 3.41 C
1030 23-04-2020 13:45:00 19.8 C 35 % 3.91 C
1031 23-04-2020 13:50:00 20.1 C 33 % 3.34 C
1032 23-04-2020 13:55:00 20.1 C 35 % 4.18 C
1033 23-04-2020 14:00:00 20.1 C 33 % 3.34 C
1034 23-04-2020 14:05:00 20.2 C 33 % 3.43 C
1035 23-04-2020 14:10:00 20.3 C 33 % 3.52 C
1036 23-04-2020 14:15:00 20.3 C 35 % 4.35 C
1037 23-04-2020 14:20:00 20.4 C 33 % 3.6 C
1038 23-04-2020 14:25:00 20.6 C 33 % 3.78 C
1039 23-04-2020 14:30:00 20.8 C 33 % 3.95 C
1040 23-04-2020 14:35:00 20.9 C 33 % 4.04 C
1041 23-04-2020 14:40:00 21 C 32 % 3.69 C
1042 23-04-2020 14:45:00 21 C 33 % 4.13 C
1043 23-04-2020 14:50:00 21.1 C 33 % 4.22 C
1044 23-04-2020 14:55:00 21.3 C 32 % 3.95 C
1045 23-04-2020 15:00:00 21.4 C 33 % 4.48 C
1046 23-04-2020 15:05:00 21.6 C 32 % 4.21 C
1047 23-04-2020 15:10:00 21.7 C 31 % 3.85 C
1048 23-04-2020 15:15:00 21.6 C 30 % 3.3 C
1049 23-04-2020 15:20:00 21.7 C 32 % 4.3 C
1050 23-04-2020 15:25:00 21.8 C 31 % 3.94 C
Sensor: Nr:Datum:Temp:Feuchte:Taupunkt:
Aussen-T/F 1051 23-04-2020 15:30:00 22.1 C 31 % 4.2 C
1052 23-04-2020 15:35:00 22.2 C 30 % 3.82 C
1053 23-04-2020 15:40:00 22.3 C 29 % 3.42 C
1054 23-04-2020 15:45:00 22.4 C 31 % 4.46 C
1055 23-04-2020 15:50:00 22.6 C 30 % 4.16 C
1056 23-04-2020 15:55:00 22.6 C 29 % 3.68 C
1057 23-04-2020 16:00:00 22.6 C 30 % 4.16 C
1058 23-04-2020 16:05:00 22.7 C 30 % 4.25 C
1059 23-04-2020 16:10:00 22.7 C 30 % 4.25 C
1060 23-04-2020 16:15:00 22.7 C 30 % 4.25 C
1061 23-04-2020 16:20:00 22.8 C 30 % 4.34 C
1062 23-04-2020 16:25:00 23.2 C 29 % 4.2 C
1063 23-04-2020 16:30:00 23.5 C 28 % 3.96 C
1064 23-04-2020 16:35:00 23.4 C 28 % 3.87 C
1065 23-04-2020 16:40:00 23.3 C 28 % 3.78 C
1066 23-04-2020 16:45:00 23.4 C 30 % 4.85 C
1067 23-04-2020 16:50:00 23.9 C 29 % 4.8 C
1068 23-04-2020 16:55:00 24.3 C 28 % 4.64 C
1069 23-04-2020 17:00:00 24.2 C 28 % 4.55 C
1070 23-04-2020 17:05:00 24.4 C 28 % 4.73 C
1071 23-04-2020 17:10:00 24.2 C 28 % 4.55 C
1072 23-04-2020 17:15:00 24.1 C 28 % 4.47 C
1073 23-04-2020 17:20:00 24.2 C 28 % 4.55 C
1074 23-04-2020 17:25:00 24.5 C 26 % 3.76 C
1075 23-04-2020 17:30:00 24.7 C 27 % 4.46 C
Sensor: Nr:Datum:Temp:Feuchte:Taupunkt:
Aussen-T/F 1076 23-04-2020 17:35:00 24.7 C 26 % 3.93 C
1077 23-04-2020 17:40:00 24.3 C 27 % 4.12 C
1078 23-04-2020 17:45:00 24.2 C 28 % 4.55 C
1079 23-04-2020 17:50:00 24.2 C 28 % 4.55 C
1080 23-04-2020 17:55:00 24.6 C 29 % 5.4 C
1081 23-04-2020 18:00:00 24.8 C 25 % 3.45 C
1082 23-04-2020 18:05:00 25.1 C 27 % 4.8 C
1083 23-04-2020 18:10:00 25.3 C 25 % 3.88 C
1084 23-04-2020 18:15:00 25.2 C 29 % 5.91 C
1085 23-04-2020 18:20:00 25.5 C 27 % 5.14 C
1086 23-04-2020 18:25:00 25.7 C 25 % 4.21 C
1087 23-04-2020 18:30:00 25.8 C 25 % 4.3 C
1088 23-04-2020 18:35:00 25.7 C 25 % 4.21 C
1089 23-04-2020 18:40:00 25.6 C 27 % 5.23 C
1090 23-04-2020 18:45:00 25.4 C 27 % 5.06 C
1091 23-04-2020 18:50:00 25.3 C 27 % 4.97 C
1092 23-04-2020 18:55:00 24.9 C 27 % 4.63 C
1093 23-04-2020 19:00:00 24.7 C 30 % 5.97 C
1094 23-04-2020 19:05:00 24.7 C 29 % 5.49 C
1095 23-04-2020 19:10:00 24.8 C 26 % 4.01 C
1096 23-04-2020 19:15:00 24.8 C 28 % 5.07 C
1097 23-04-2020 19:20:00 24.7 C 31 % 6.45 C
1098 23-04-2020 19:25:00 24.4 C 33 % 7.1 C
1099 23-04-2020 19:30:00 24.2 C 36 % 8.2 C
1100 23-04-2020 19:35:00 22.9 C 58 % 14.2 C
Sensor: Nr:Datum:Temp:Feuchte:Taupunkt:
Aussen-T/F 1101 23-04-2020 19:40:00 20.8 C 61 % 13.01 C
1102 23-04-2020 19:45:00 19 C 67 % 12.74 C
1103 23-04-2020 19:50:00 17.6 C 67 % 11.4 C
1104 23-04-2020 19:55:00 16.4 C 66 % 10.04 C
1105 23-04-2020 20:00:00 15.7 C 66 % 9.37 C
1106 23-04-2020 20:05:00 15.3 C 66 % 8.99 C
1107 23-04-2020 20:10:00 15.2 C 66 % 8.9 C
1108 23-04-2020 20:15:00 14.9 C 65 % 8.39 C
1109 23-04-2020 20:20:00 14.8 C 66 % 8.52 C
1110 23-04-2020 20:25:00 14.7 C 67 % 8.64 C
1111 23-04-2020 20:30:00 14.6 C 68 % 8.77 C
1112 23-04-2020 20:35:00 14.4 C 69 % 8.79 C
1113 23-04-2020 20:40:00 14.3 C 70 % 8.91 C
1114 23-04-2020 20:45:00 14.1 C 69 % 8.5 C
1115 23-04-2020 20:50:00 13.9 C 66 % 7.66 C
1116 23-04-2020 20:55:00 13.8 C 66 % 7.57 C
1117 23-04-2020 21:00:00 13.6 C 65 % 7.15 C
1118 23-04-2020 21:05:00 13.4 C 64 % 6.74 C
1119 23-04-2020 21:10:00 13.4 C 65 % 6.96 C
1120 23-04-2020 21:15:00 13.3 C 66 % 7.09 C
1121 23-04-2020 21:20:00 13.2 C 65 % 6.77 C
1122 23-04-2020 21:25:00 13.1 C 65 % 6.68 C
1123 23-04-2020 21:30:00 12.9 C 65 % 6.49 C
1124 23-04-2020 21:35:00 12.8 C 64 % 6.17 C
1125 23-04-2020 21:40:00 12.7 C 65 % 6.3 C
Sensor: Nr:Datum:Temp:Feuchte:Taupunkt:
Aussen-T/F 1126 23-04-2020 21:45:00 12.6 C 66 % 6.42 C
1127 23-04-2020 21:50:00 12.4 C 66 % 6.23 C
1128 23-04-2020 21:55:00 12.3 C 65 % 5.92 C
1129 23-04-2020 22:00:00 12.2 C 67 % 6.26 C
1130 23-04-2020 22:05:00 12.1 C 67 % 6.17 C
1131 23-04-2020 22:10:00 11.9 C 68 % 6.19 C
1132 23-04-2020 22:15:00 11.7 C 67 % 5.78 C
1133 23-04-2020 22:20:00 11.7 C 68 % 6 C
1134 23-04-2020 22:25:00 11.6 C 67 % 5.69 C
1135 23-04-2020 22:30:00 11.4 C 68 % 5.71 C
1136 23-04-2020 22:35:00 11.3 C 68 % 5.62 C
1137 23-04-2020 22:40:00 11.2 C 68 % 5.52 C
1138 23-04-2020 22:45:00 11.2 C 69 % 5.73 C
1139 23-04-2020 22:50:00 11.1 C 68 % 5.43 C
1140 23-04-2020 22:55:00 10.9 C 69 % 5.44 C
1141 23-04-2020 23:00:00 10.8 C 70 % 5.56 C
1142 23-04-2020 23:05:00 10.7 C 70 % 5.46 C
1143 23-04-2020 23:10:00 10.6 C 70 % 5.36 C
1144 23-04-2020 23:15:00 10.4 C 71 % 5.38 C
1145 23-04-2020 23:20:00 10.3 C 71 % 5.28 C
1146 23-04-2020 23:25:00 10.1 C 71 % 5.09 C
1147 23-04-2020 23:30:00 10.1 C 72 % 5.29 C
1148 23-04-2020 23:35:00 10 C 72 % 5.19 C
1149 23-04-2020 23:40:00 9.8 C 72 % 5 C
1150 23-04-2020 23:45:00 9.7 C 72 % 4.9 C
Sensor: Nr:Datum:Temp:Feuchte:Taupunkt:
Aussen-T/F 1151 23-04-2020 23:50:00 9.7 C 72 % 4.9 C
1152 23-04-2020 23:55:00 9.7 C 72 % 4.9 C
1153 24-04-2020 00:00:00 9.6 C 72 % 4.81 C
1154 24-04-2020 00:05:00 9.6 C 72 % 4.81 C
1155 24-04-2020 00:10:00 9.6 C 73 % 5.01 C
1156 24-04-2020 00:15:00 9.6 C 74 % 5.2 C
1157 24-04-2020 00:20:00 9.6 C 73 % 5.01 C
1158 24-04-2020 00:25:00 9.5 C 73 % 4.91 C
1159 24-04-2020 00:30:00 9.4 C 74 % 5.01 C
1160 24-04-2020 00:35:00 9.3 C 74 % 4.91 C
1161 24-04-2020 00:40:00 9.1 C 74 % 4.72 C
1162 24-04-2020 00:45:00 9 C 74 % 4.62 C
1163 24-04-2020 00:50:00 8.9 C 75 % 4.72 C
1164 24-04-2020 00:55:00 8.8 C 75 % 4.62 C
1165 24-04-2020 01:00:00 8.8 C 76 % 4.81 C
1166 24-04-2020 01:05:00 8.7 C 76 % 4.71 C
1167 24-04-2020 01:10:00 8.7 C 77 % 4.9 C
1168 24-04-2020 01:15:00 8.6 C 77 % 4.8 C
1169 24-04-2020 01:20:00 8.6 C 77 % 4.8 C
1170 24-04-2020 01:25:00 8.5 C 76 % 4.52 C
1171 24-04-2020 01:30:00 8.4 C 76 % 4.42 C
1172 24-04-2020 01:35:00 8.4 C 77 % 4.61 C
1173 24-04-2020 01:40:00 8.4 C 78 % 4.79 C
1174 24-04-2020 01:45:00 8.4 C 78 % 4.79 C
1175 24-04-2020 01:50:00 8.3 C 78 % 4.7 C
Sensor: Nr:Datum:Temp:Feuchte:Taupunkt:
Aussen-T/F 1176 24-04-2020 01:55:00 8.2 C 78 % 4.6 C
1177 24-04-2020 02:00:00 8.2 C 78 % 4.6 C
1178 24-04-2020 02:05:00 8.1 C 79 % 4.68 C
1179 24-04-2020 02:10:00 7.9 C 78 % 4.31 C
1180 24-04-2020 02:15:00 7.8 C 78 % 4.21 C
1181 24-04-2020 02:20:00 7.7 C 79 % 4.3 C
1182 24-04-2020 02:25:00 7.7 C 80 % 4.47 C
1183 24-04-2020 02:30:00 7.7 C 80 % 4.47 C
1184 24-04-2020 02:35:00 7.7 C 81 % 4.65 C
1185 24-04-2020 02:40:00 7.6 C 80 % 4.38 C
1186 24-04-2020 02:45:00 7.4 C 80 % 4.18 C
1187 24-04-2020 02:50:00 7.4 C 81 % 4.36 C
1188 24-04-2020 02:55:00 7.3 C 82 % 4.44 C
1189 24-04-2020 03:00:00 7.3 C 82 % 4.44 C
1190 24-04-2020 03:05:00 7.3 C 82 % 4.44 C
1191 24-04-2020 03:10:00 7.3 C 82 % 4.44 C
1192 24-04-2020 03:15:00 7.2 C 82 % 4.34 C
1193 24-04-2020 03:20:00 7.1 C 82 % 4.24 C
1194 24-04-2020 03:25:00 6.9 C 83 % 4.22 C
1195 24-04-2020 03:30:00 6.9 C 83 % 4.22 C
1196 24-04-2020 03:35:00 6.8 C 83 % 4.12 C
1197 24-04-2020 03:40:00 6.8 C 84 % 4.29 C
1198 24-04-2020 03:45:00 6.7 C 84 % 4.19 C
1199 24-04-2020 03:50:00 6.7 C 84 % 4.19 C
1200 24-04-2020 03:55:00 6.7 C 84 % 4.19 C
Sensor: Nr:Datum:Temp:Feuchte:Taupunkt:
Aussen-T/F 1201 24-04-2020 04:00:00 6.7 C 84 % 4.19 C
1202 24-04-2020 04:05:00 6.6 C 84 % 4.1 C
1203 24-04-2020 04:10:00 6.5 C 85 % 4.17 C
1204 24-04-2020 04:15:00 6.5 C 85 % 4.17 C
1205 24-04-2020 04:20:00 6.4 C 85 % 4.07 C
1206 24-04-2020 04:25:00 6.3 C 85 % 3.97 C
1207 24-04-2020 04:30:00 6.3 C 85 % 3.97 C
1208 24-04-2020 04:35:00 6.3 C 86 % 4.14 C
1209 24-04-2020 04:40:00 6.5 C 86 % 4.33 C
1210 24-04-2020 04:45:00 6.6 C 86 % 4.43 C
1211 24-04-2020 04:50:00 6.7 C 86 % 4.53 C
1212 24-04-2020 04:55:00 6.7 C 85 % 4.36 C
1213 24-04-2020 05:00:00 6.7 C 85 % 4.36 C
1214 24-04-2020 05:05:00 6.6 C 85 % 4.26 C
1215 24-04-2020 05:10:00 6.5 C 85 % 4.17 C
1216 24-04-2020 05:15:00 6.4 C 85 % 4.07 C
1217 24-04-2020 05:20:00 6.3 C 86 % 4.14 C
1218 24-04-2020 05:25:00 6.3 C 86 % 4.14 C
1219 24-04-2020 05:30:00 6.3 C 87 % 4.3 C
1220 24-04-2020 05:35:00 6.3 C 87 % 4.3 C
1221 24-04-2020 05:40:00 6.4 C 87 % 4.4 C
1222 24-04-2020 05:45:00 6.4 C 87 % 4.4 C
1223 24-04-2020 05:50:00 6.4 C 87 % 4.4 C
1224 24-04-2020 05:55:00 6.4 C 87 % 4.4 C
1225 24-04-2020 06:00:00 6.4 C 87 % 4.4 C
Sensor: Nr:Datum:Temp:Feuchte:Taupunkt:
Aussen-T/F 1226 24-04-2020 06:05:00 6.4 C 87 % 4.4 C
1227 24-04-2020 06:10:00 6.3 C 87 % 4.3 C
1228 24-04-2020 06:15:00 6.3 C 87 % 4.3 C
1229 24-04-2020 06:20:00 6.3 C 87 % 4.3 C
1230 24-04-2020 06:25:00 6.4 C 87 % 4.4 C
1231 24-04-2020 06:30:00 6.4 C 87 % 4.4 C
1232 24-04-2020 06:35:00 6.4 C 87 % 4.4 C
1233 24-04-2020 06:40:00 6.3 C 87 % 4.3 C
1234 24-04-2020 06:45:00 6.4 C 87 % 4.4 C
1235 24-04-2020 06:50:00 6.4 C 87 % 4.4 C
1236 24-04-2020 06:55:00 6.4 C 87 % 4.4 C
1237 24-04-2020 07:00:00 6.4 C 87 % 4.4 C
1238 24-04-2020 07:05:00 6.4 C 87 % 4.4 C
1239 24-04-2020 07:10:00 6.5 C 88 % 4.66 C
1240 24-04-2020 07:15:00 6.5 C 88 % 4.66 C
1241 24-04-2020 07:20:00 6.6 C 88 % 4.76 C
1242 24-04-2020 07:25:00 6.6 C 88 % 4.76 C
1243 24-04-2020 07:30:00 6.6 C 88 % 4.76 C
1244 24-04-2020 07:35:00 6.6 C 88 % 4.76 C
1245 24-04-2020 07:40:00 6.6 C 88 % 4.76 C
1246 24-04-2020 07:45:00 6.7 C 88 % 4.86 C
1247 24-04-2020 07:50:00 6.8 C 88 % 4.96 C
1248 24-04-2020 07:55:00 6.8 C 88 % 4.96 C
1249 24-04-2020 08:00:00 6.9 C 88 % 5.05 C
1250 24-04-2020 08:05:00 6.9 C 88 % 5.05 C
Sensor: Nr:Datum:Temp:Feuchte:Taupunkt:
Aussen-T/F 1251 24-04-2020 08:10:00 7.1 C 88 % 5.25 C
1252 24-04-2020 08:15:00 7.2 C 88 % 5.35 C
1253 24-04-2020 08:20:00 7.3 C 87 % 5.28 C
1254 24-04-2020 08:25:00 7.6 C 87 % 5.58 C
1255 24-04-2020 08:30:00 7.8 C 86 % 5.61 C
1256 24-04-2020 08:35:00 8.1 C 85 % 5.73 C
1257 24-04-2020 08:40:00 8.3 C 85 % 5.93 C
1258 24-04-2020 08:45:00 8.7 C 85 % 6.32 C
1259 24-04-2020 08:50:00 8.9 C 83 % 6.17 C
1260 24-04-2020 08:55:00 9.2 C 83 % 6.47 C
1261 24-04-2020 09:00:00 9.4 C 82 % 6.49 C
1262 24-04-2020 09:05:00 9.6 C 80 % 6.32 C
1263 24-04-2020 09:10:00 9.9 C 79 % 6.43 C
1264 24-04-2020 09:15:00 10.1 C 78 % 6.44 C
1265 24-04-2020 09:20:00 10.3 C 79 % 6.82 C
1266 24-04-2020 09:25:00 10.6 C 78 % 6.93 C
1267 24-04-2020 09:30:00 10.8 C 77 % 6.94 C
1268 24-04-2020 09:35:00 11.1 C 77 % 7.23 C
1269 24-04-2020 09:40:00 11.3 C 76 % 7.23 C
1270 24-04-2020 09:45:00 11.4 C 75 % 7.13 C
1271 24-04-2020 09:50:00 11.7 C 75 % 7.42 C
1272 24-04-2020 09:55:00 11.8 C 75 % 7.52 C
1273 24-04-2020 10:00:00 12.1 C 74 % 7.61 C
1274 24-04-2020 10:05:00 12.2 C 73 % 7.51 C
1275 24-04-2020 10:10:00 12.3 C 73 % 7.61 C
Sensor: Nr:Datum:Temp:Feuchte:Taupunkt:
Aussen-T/F 1276 24-04-2020 10:15:00 12.3 C 72 % 7.4 C
1277 24-04-2020 10:20:00 12.5 C 72 % 7.6 C
1278 24-04-2020 10:25:00 12.7 C 72 % 7.79 C
1279 24-04-2020 10:30:00 12.9 C 72 % 7.98 C
1280 24-04-2020 10:35:00 13.2 C 71 % 8.06 C
1281 24-04-2020 10:40:00 13.6 C 71 % 8.45 C
1282 24-04-2020 10:45:00 13.8 C 69 % 8.22 C
1283 24-04-2020 10:50:00 13.9 C 70 % 8.53 C
1284 24-04-2020 10:55:00 14.2 C 68 % 8.39 C
1285 24-04-2020 11:00:00 14.3 C 67 % 8.26 C
1286 24-04-2020 11:05:00 14.6 C 67 % 8.55 C
1287 24-04-2020 11:10:00 14.7 C 66 % 8.42 C
1288 24-04-2020 11:15:00 14.8 C 67 % 8.74 C
1289 24-04-2020 11:20:00 15 C 65 % 8.48 C
1290 24-04-2020 11:25:00 15.2 C 65 % 8.67 C
1291 24-04-2020 11:30:00 15.3 C 64 % 8.54 C
1292 24-04-2020 11:35:00 15.4 C 63 % 8.4 C
1293 24-04-2020 11:40:00 15.6 C 64 % 8.82 C
1294 24-04-2020 11:45:00 15.7 C 63 % 8.68 C
1295 24-04-2020 11:50:00 15.9 C 62 % 8.64 C
1296 24-04-2020 11:55:00 16.1 C 62 % 8.82 C
1297 24-04-2020 12:00:00 16.2 C 62 % 8.92 C
1298 24-04-2020 12:05:00 16.4 C 63 % 9.35 C
1299 24-04-2020 12:10:00 16.6 C 62 % 9.3 C
1300 24-04-2020 12:15:00 16.9 C 60 % 9.09 C
Sensor: Nr:Datum:Temp:Feuchte:Taupunkt:
Aussen-T/F 1301 24-04-2020 12:20:00 17.3 C 63 % 10.2 C
1302 24-04-2020 12:25:00 17.7 C 58 % 9.34 C
1303 24-04-2020 12:30:00 17.9 C 55 % 8.74 C
1304 24-04-2020 12:35:00 18.1 C 56 % 9.19 C
1305 24-04-2020 12:40:00 18.2 C 55 % 9.02 C
1306 24-04-2020 12:45:00 18.3 C 51 % 8 C
1307 24-04-2020 12:50:00 18.6 C 52 % 8.56 C
1308 24-04-2020 12:55:00 18.8 C 49 % 7.87 C
1309 24-04-2020 13:00:00 19.2 C 47 % 7.63 C
1310 24-04-2020 13:05:00 19.3 C 48 % 8.03 C
1311 24-04-2020 13:10:00 19.4 C 46 % 7.49 C
1312 24-04-2020 13:15:00 19.7 C 44 % 7.12 C
1313 24-04-2020 13:20:00 20 C 42 % 6.71 C
1314 24-04-2020 13:25:00 20.1 C 39 % 5.73 C
1315 24-04-2020 13:30:00 20.2 C 38 % 5.44 C
1316 24-04-2020 13:35:00 20.2 C 40 % 6.18 C
1317 24-04-2020 13:40:00 20.3 C 39 % 5.9 C
1318 24-04-2020 13:45:00 20.5 C 38 % 5.71 C
1319 24-04-2020 13:50:00 20.7 C 38 % 5.89 C
1320 24-04-2020 13:55:00 20.7 C 39 % 6.26 C
1321 24-04-2020 14:00:00 20.8 C 40 % 6.72 C
1322 24-04-2020 14:05:00 21.1 C 41 % 7.35 C
1323 24-04-2020 14:10:00 21.1 C 40 % 6.99 C
1324 24-04-2020 14:15:00 21.1 C 40 % 6.99 C
1325 24-04-2020 14:20:00 21.2 C 41 % 7.44 C
Sensor: Nr:Datum:Temp:Feuchte:Taupunkt:
Aussen-T/F 1326 24-04-2020 14:25:00 21.4 C 41 % 7.62 C
1327 24-04-2020 14:30:00 21.4 C 41 % 7.62 C
1328 24-04-2020 14:35:00 21.4 C 42 % 7.97 C
1329 24-04-2020 14:40:00 21.5 C 42 % 8.06 C
1330 24-04-2020 14:45:00 21.6 C 42 % 8.15 C
1331 24-04-2020 14:50:00 21.6 C 42 % 8.15 C
1332 24-04-2020 14:55:00 21.7 C 41 % 7.88 C
1333 24-04-2020 15:00:00 21.7 C 42 % 8.24 C
1334 24-04-2020 15:05:00 21.8 C 40 % 7.61 C
1335 24-04-2020 15:10:00 21.9 C 41 % 8.06 C
1336 24-04-2020 15:15:00 21.9 C 39 % 7.33 C
1337 24-04-2020 15:20:00 22 C 39 % 7.42 C
1338 24-04-2020 15:25:00 21.9 C 38 % 6.95 C
1339 24-04-2020 15:30:00 22 C 37 % 6.65 C
1340 24-04-2020 15:35:00 22.1 C 36 % 6.34 C
1341 24-04-2020 15:40:00 22.2 C 36 % 6.43 C
1342 24-04-2020 15:45:00 22.3 C 36 % 6.52 C
1343 24-04-2020 15:50:00 22.4 C 35 % 6.2 C
1344 24-04-2020 15:55:00 22.6 C 34 % 5.96 C
1345 24-04-2020 16:00:00 22.6 C 34 % 5.96 C
1346 24-04-2020 16:05:00 22.5 C 35 % 6.29 C
1347 24-04-2020 16:10:00 22.6 C 34 % 5.96 C
1348 24-04-2020 16:15:00 22.7 C 33 % 5.61 C
1349 24-04-2020 16:20:00 22.8 C 33 % 5.7 C
1350 24-04-2020 16:25:00 22.8 C 31 % 4.8 C
Sensor: Nr:Datum:Temp:Feuchte:Taupunkt:
Aussen-T/F 1351 24-04-2020 16:30:00 22.9 C 30 % 4.42 C
1352 24-04-2020 16:35:00 23.1 C 32 % 5.52 C
1353 24-04-2020 16:40:00 23.2 C 30 % 4.68 C
1354 24-04-2020 16:45:00 23.1 C 29 % 4.11 C
1355 24-04-2020 16:50:00 22.9 C 31 % 4.89 C
1356 24-04-2020 16:55:00 22.9 C 30 % 4.42 C
1357 24-04-2020 17:00:00 22.8 C 31 % 4.8 C
1358 24-04-2020 17:05:00 22.6 C 31 % 4.63 C
1359 24-04-2020 17:10:00 22.6 C 32 % 5.08 C
1360 24-04-2020 17:15:00 22.6 C 30 % 4.16 C
1361 24-04-2020 17:20:00 22.6 C 29 % 3.68 C
1362 24-04-2020 17:25:00 22.7 C 29 % 3.77 C
1363 24-04-2020 17:30:00 22.8 C 29 % 3.85 C
1364 24-04-2020 17:35:00 22.7 C 28 % 3.27 C
1365 24-04-2020 17:40:00 22.4 C 29 % 3.51 C
1366 24-04-2020 17:45:00 22.2 C 30 % 3.82 C
1367 24-04-2020 17:50:00 22.2 C 30 % 3.82 C
1368 24-04-2020 17:55:00 22.4 C 30 % 3.99 C
1369 24-04-2020 18:00:00 22.4 C 31 % 4.46 C
1370 24-04-2020 18:05:00 22.1 C 31 % 4.2 C
1371 24-04-2020 18:10:00 21.9 C 31 % 4.02 C
1372 24-04-2020 18:15:00 21.7 C 33 % 4.74 C
1373 24-04-2020 18:20:00 21.4 C 34 % 4.91 C
1374 24-04-2020 18:25:00 21.4 C 35 % 5.32 C
1375 24-04-2020 18:30:00 21.6 C 37 % 6.3 C
Sensor: Nr:Datum:Temp:Feuchte:Taupunkt:
Aussen-T/F 1376 24-04-2020 18:35:00 21.6 C 37 % 6.3 C
1377 24-04-2020 18:40:00 21.4 C 38 % 6.51 C
1378 24-04-2020 18:45:00 21.3 C 38 % 6.42 C
1379 24-04-2020 18:50:00 21.2 C 39 % 6.71 C
1380 24-04-2020 18:55:00 21.1 C 39 % 6.62 C
1381 24-04-2020 19:00:00 21.1 C 39 % 6.62 C
1382 24-04-2020 19:05:00 20.9 C 39 % 6.44 C
1383 24-04-2020 19:10:00 20.8 C 39 % 6.35 C
1384 24-04-2020 19:15:00 20.7 C 40 % 6.63 C
1385 24-04-2020 19:20:00 20.5 C 40 % 6.45 C
1386 24-04-2020 19:25:00 20.4 C 41 % 6.72 C
1387 24-04-2020 19:30:00 20.3 C 41 % 6.63 C
1388 24-04-2020 19:35:00 20.1 C 42 % 6.8 C
1389 24-04-2020 19:40:00 19.9 C 43 % 6.96 C
1390 24-04-2020 19:45:00 19.8 C 43 % 6.87 C
1391 24-04-2020 19:50:00 19.7 C 43 % 6.78 C
1392 24-04-2020 19:55:00 19.6 C 44 % 7.03 C
1393 24-04-2020 20:00:00 19.4 C 45 % 7.17 C
1394 24-04-2020 20:05:00 19.2 C 45 % 6.99 C
1395 24-04-2020 20:10:00 19.1 C 44 % 6.57 C
1396 24-04-2020 20:15:00 18.9 C 46 % 7.04 C
1397 24-04-2020 20:20:00 18.7 C 47 % 7.17 C
1398 24-04-2020 20:25:00 18.3 C 47 % 6.8 C
1399 24-04-2020 20:30:00 18.2 C 48 % 7.02 C
1400 24-04-2020 20:35:00 17.8 C 50 % 7.25 C
Sensor: Nr:Datum:Temp:Feuchte:Taupunkt:
Aussen-T/F 1401 24-04-2020 20:40:00 17.5 C 50 % 6.97 C
1402 24-04-2020 20:45:00 17.2 C 50 % 6.7 C
1403 24-04-2020 20:50:00 16.9 C 51 % 6.71 C
1404 24-04-2020 20:55:00 16.7 C 52 % 6.81 C
1405 24-04-2020 21:00:00 16.4 C 52 % 6.53 C
1406 24-04-2020 21:05:00 16.3 C 53 % 6.71 C
1407 24-04-2020 21:10:00 16.2 C 53 % 6.62 C
1408 24-04-2020 21:15:00 16 C 52 % 6.16 C
1409 24-04-2020 21:20:00 15.8 C 53 % 6.25 C
1410 24-04-2020 21:25:00 15.7 C 54 % 6.43 C
1411 24-04-2020 21:30:00 15.6 C 53 % 6.06 C
1412 24-04-2020 21:35:00 15.6 C 54 % 6.34 C
1413 24-04-2020 21:40:00 15.7 C 54 % 6.43 C
1414 24-04-2020 21:45:00 15.6 C 53 % 6.06 C
1415 24-04-2020 21:50:00 15.5 C 55 % 6.51 C
1416 24-04-2020 21:55:00 15.3 C 55 % 6.32 C
1417 24-04-2020 22:00:00 15.2 C 55 % 6.23 C
1418 24-04-2020 22:05:00 15.1 C 55 % 6.14 C
1419 24-04-2020 22:10:00 15 C 56 % 6.3 C
1420 24-04-2020 22:15:00 14.8 C 56 % 6.12 C
1421 24-04-2020 22:20:00 14.7 C 57 % 6.28 C
1422 24-04-2020 22:25:00 14.6 C 54 % 5.41 C
1423 24-04-2020 22:30:00 14.6 C 56 % 5.93 C
1424 24-04-2020 22:35:00 14.6 C 55 % 5.67 C
1425 24-04-2020 22:40:00 14.6 C 56 % 5.93 C
Sensor: Nr:Datum:Temp:Feuchte:Taupunkt:
Aussen-T/F 1426 24-04-2020 22:45:00 14.4 C 56 % 5.74 C
1427 24-04-2020 22:50:00 14.2 C 56 % 5.56 C
1428 24-04-2020 22:55:00 13.9 C 57 % 5.53 C
1429 24-04-2020 23:00:00 13.7 C 56 % 5.09 C
1430 24-04-2020 23:05:00 13.5 C 57 % 5.16 C
1431 24-04-2020 23:10:00 13.3 C 53 % 3.93 C
1432 24-04-2020 23:15:00 13.3 C 56 % 4.72 C
1433 24-04-2020 23:20:00 13.2 C 52 % 3.57 C
1434 24-04-2020 23:25:00 13.1 C 53 % 3.75 C
1435 24-04-2020 23:30:00 12.9 C 52 % 3.29 C
1436 24-04-2020 23:35:00 12.8 C 50 % 2.65 C
1437 24-04-2020 23:40:00 12.9 C 51 % 3.02 C
1438 24-04-2020 23:45:00 12.9 C 51 % 3.02 C
1439 24-04-2020 23:50:00 12.9 C 53 % 3.56 C
1440 24-04-2020 23:55:00 12.8 C 50 % 2.65 C

Legende:
   Min
   Max


Maximal/Minimal-Werte vom 20.04.2020 - 24.04.2020

Sensor Min Max Avg
Temp
(Aussen-T/F)
5.9 °C
23-04-2020  07:20:00
25.8 °C
23-04-2020  18:30:00
13.72 °C
Feuchte
(Aussen-T/F)
25 %
23-04-2020  18:00:00
88 %
24-04-2020  07:10:00
53.71 %
Taupunkt
(Aussen-T/F)
0.02 C
21-04-2020  00:15:00
14.2 C
23-04-2020  19:35:00
3.59 C

Die Daten stammen von einer Davis Vantage Pro 2 Wetter-Station und werden unter Linux mit der Software wview2wettercgi und aufbereitet. Alle Angaben erfolgen ohne Gewähr für ihre Vollständigkeit oder Richtigkeit.
Kontakt: Rainer Krienke krienke@uni-koblenz.de . Meine Webseiten an der Uni Koblenz oder privat.
Version: $Revision: 0.78 $